AUA6 VTBS-LOWW
Flight info
| Callsign | AUA6 |
|---|---|
| Flight time | 10h 29m |
| Altitude | 36000 |
| Route | TARED1E TARED G463 BETNO N895 PTN P646 JJS B209 KKJ L333 MERUN L750 RANAH B449 MAMED B450 BIBIM A909 RODAR N644 BADIR DCT ODILI DCT SARPI UM10 GOKPA UL746 ODERO DCT OPT DCT IRLOX DCT BALUX DCT TORNO DCT NATEX NATEX2W |
| Aircraft | B772/H-SDE2E3FGHIJ5LORVWXY/LB1D1 |
Departure
| Time | 2026-04-21 13:19 |
|---|---|
| Airport | Suvarnabhumi Airport (VTBS) |
Arrival
| Time | 2026-04-21 23:48 |
|---|---|
| Airport | Vienna International Airport (LOWW) |
| Time | Latitude | Longitude | Altitude | Speed | Heading |
|---|---|---|---|---|---|
| 2026-04-21 12:39 | 13.68098 | 100.74972 | 17 ft | 0 kts | 14° |
| 2026-04-21 13:12 | 13.68099 | 100.74972 | 17 ft | 1 kts | 14° |
| 2026-04-21 13:12 | 13.68092 | 100.74971 | 17 ft | 6 kts | 14° |
| 2026-04-21 13:13 | 13.68019 | 100.74930 | 20 ft | 12 kts | 76° |
| 2026-04-21 13:13 | 13.68017 | 100.74913 | 21 ft | 0 kts | 109° |
| 2026-04-21 13:13 | 13.68004 | 100.74950 | 19 ft | 12 kts | 108° |
| 2026-04-21 13:14 | 13.67983 | 100.75033 | 17 ft | 14 kts | 103° |
| 2026-04-21 13:14 | 13.67955 | 100.75150 | 17 ft | 19 kts | 104° |
| 2026-04-21 13:14 | 13.67922 | 100.75282 | 17 ft | 19 kts | 104° |
| 2026-04-21 13:14 | 13.67890 | 100.75415 | 17 ft | 19 kts | 94° |
| 2026-04-21 13:15 | 13.67979 | 100.75499 | 17 ft | 19 kts | 17° |
| 2026-04-21 13:15 | 13.68107 | 100.75533 | 17 ft | 19 kts | 14° |
| 2026-04-21 13:15 | 13.68236 | 100.75566 | 17 ft | 19 kts | 14° |
| 2026-04-21 13:15 | 13.68365 | 100.75600 | 17 ft | 19 kts | 14° |
| 2026-04-21 13:16 | 13.68493 | 100.75634 | 17 ft | 19 kts | 14° |
| 2026-04-21 13:16 | 13.68622 | 100.75667 | 17 ft | 19 kts | 14° |
| 2026-04-21 13:16 | 13.68751 | 100.75701 | 17 ft | 19 kts | 14° |
| 2026-04-21 13:16 | 13.68878 | 100.75735 | 17 ft | 19 kts | 14° |
| 2026-04-21 13:17 | 13.69007 | 100.75769 | 17 ft | 19 kts | 14° |
| 2026-04-21 13:17 | 13.69135 | 100.75803 | 17 ft | 19 kts | 14° |
| 2026-04-21 13:17 | 13.69227 | 100.75884 | 17 ft | 19 kts | 82° |
| 2026-04-21 13:17 | 13.69194 | 100.76015 | 17 ft | 19 kts | 110° |
| 2026-04-21 13:18 | 13.69088 | 100.76083 | 16 ft | 21 kts | 181° |
| 2026-04-21 13:18 | 13.68793 | 100.76009 | 19 ft | 79 kts | 194° |
| 2026-04-21 13:18 | 13.68026 | 100.75805 | 16 ft | 147 kts | 194° |
| 2026-04-21 13:18 | 13.66848 | 100.75514 | 162 ft | 191 kts | 193° |
| 2026-04-21 13:19 | 13.65537 | 100.75183 | 896 ft | 196 kts | 192° |
| 2026-04-21 13:19 | 13.64172 | 100.75061 | 1484 ft | 204 kts | 178° |
| 2026-04-21 13:19 | 13.62698 | 100.75110 | 1763 ft | 217 kts | 176° |
| 2026-04-21 13:19 | 13.61151 | 100.75107 | 1947 ft | 230 kts | 191° |
| 2026-04-21 13:20 | 13.60146 | 100.74671 | 2010 ft | 245 kts | 217° |
| 2026-04-21 13:20 | 13.58893 | 100.72689 | 2516 ft | 263 kts | 254° |
| 2026-04-21 13:20 | 13.58826 | 100.70794 | 3015 ft | 272 kts | 278° |
| 2026-04-21 13:20 | 13.59508 | 100.68956 | 3452 ft | 279 kts | 297° |
| 2026-04-21 13:21 | 13.60515 | 100.67253 | 4075 ft | 278 kts | 301° |
| 2026-04-21 13:21 | 13.61546 | 100.65572 | 4710 ft | 276 kts | 301° |
| 2026-04-21 13:21 | 13.62547 | 100.63890 | 5325 ft | 275 kts | 301° |
| 2026-04-21 13:21 | 13.63524 | 100.62203 | 5935 ft | 274 kts | 300° |
| 2026-04-21 13:22 | 13.64494 | 100.60512 | 6497 ft | 275 kts | 300° |
| 2026-04-21 13:22 | 13.65532 | 100.58854 | 6906 ft | 277 kts | 313° |
| 2026-04-21 13:22 | 13.67110 | 100.57757 | 7286 ft | 281 kts | 341° |
| 2026-04-21 13:22 | 13.69037 | 100.57467 | 7788 ft | 281 kts | 360° |
| 2026-04-21 13:23 | 13.71021 | 100.57534 | 8139 ft | 288 kts | 0° |
| 2026-04-21 13:23 | 13.73032 | 100.57604 | 8699 ft | 288 kts | 0° |
| 2026-04-21 13:23 | 13.75039 | 100.57667 | 9217 ft | 289 kts | 0° |
| 2026-04-21 13:23 | 13.77058 | 100.57700 | 9686 ft | 289 kts | 354° |
| 2026-04-21 13:24 | 13.78979 | 100.57116 | 9974 ft | 290 kts | 329° |
| 2026-04-21 13:24 | 13.80714 | 100.56012 | 10229 ft | 299 kts | 327° |
| 2026-04-21 13:24 | 13.82521 | 100.54855 | 10340 ft | 314 kts | 328° |
| 2026-04-21 13:24 | 13.84429 | 100.53641 | 10456 ft | 330 kts | 328° |
| 2026-04-21 13:25 | 13.86433 | 100.52373 | 10573 ft | 347 kts | 328° |
| 2026-04-21 13:25 | 13.88537 | 100.51047 | 10680 ft | 363 kts | 328° |
| 2026-04-21 13:25 | 13.90742 | 100.49659 | 10899 ft | 376 kts | 328° |
| 2026-04-21 13:25 | 13.92824 | 100.48082 | 11117 ft | 381 kts | 312° |
| 2026-04-21 13:26 | 13.94274 | 100.45773 | 11461 ft | 390 kts | 293° |
| 2026-04-21 13:26 | 13.94960 | 100.43076 | 11923 ft | 392 kts | 279° |
| 2026-04-21 13:26 | 13.95212 | 100.41186 | 12167 ft | 396 kts | 278° |
| 2026-04-21 13:26 | 13.95680 | 100.37431 | 12790 ft | 401 kts | 278° |
| 2026-04-21 13:27 | 13.95922 | 100.35543 | 13117 ft | 404 kts | 278° |
| 2026-04-21 13:27 | 13.96311 | 100.32658 | 13587 ft | 407 kts | 278° |
| 2026-04-21 13:27 | 13.96717 | 100.29761 | 13981 ft | 411 kts | 279° |
| 2026-04-21 13:27 | 13.97180 | 100.26857 | 14353 ft | 412 kts | 283° |
| 2026-04-21 13:28 | 13.98038 | 100.24031 | 14713 ft | 415 kts | 293° |
| 2026-04-21 13:28 | 13.99281 | 100.21340 | 15114 ft | 416 kts | 301° |
| 2026-04-21 13:28 | 14.00846 | 100.18838 | 15503 ft | 417 kts | 305° |
| 2026-04-21 13:28 | 14.02489 | 100.16358 | 15855 ft | 420 kts | 305° |
| 2026-04-21 13:29 | 14.04146 | 100.13864 | 16205 ft | 423 kts | 305° |
| 2026-04-21 13:29 | 14.05803 | 100.11354 | 16554 ft | 425 kts | 305° |
| 2026-04-21 13:29 | 14.07999 | 100.07994 | 17027 ft | 428 kts | 305° |
| 2026-04-21 13:29 | 14.09124 | 100.06264 | 17254 ft | 429 kts | 305° |
| 2026-04-21 13:30 | 14.10765 | 100.03733 | 17581 ft | 432 kts | 304° |
| 2026-04-21 13:30 | 14.12438 | 100.01150 | 17889 ft | 434 kts | 304° |
| 2026-04-21 13:30 | 14.14114 | 99.98559 | 18202 ft | 436 kts | 304° |
| 2026-04-21 13:30 | 14.15801 | 99.95953 | 18483 ft | 437 kts | 304° |
| 2026-04-21 13:31 | 14.17495 | 99.93335 | 18749 ft | 439 kts | 304° |
| 2026-04-21 13:31 | 14.19192 | 99.90715 | 19019 ft | 441 kts | 304° |
| 2026-04-21 13:31 | 14.20900 | 99.88081 | 19282 ft | 443 kts | 304° |
| 2026-04-21 13:31 | 14.22614 | 99.85436 | 19532 ft | 444 kts | 304° |
| 2026-04-21 13:32 | 14.24315 | 99.82811 | 19771 ft | 446 kts | 304° |
| 2026-04-21 13:32 | 14.26040 | 99.80146 | 20027 ft | 448 kts | 304° |
| 2026-04-21 13:32 | 14.27775 | 99.77466 | 20277 ft | 450 kts | 304° |
| 2026-04-21 13:32 | 14.29514 | 99.74778 | 20520 ft | 452 kts | 304° |
| 2026-04-21 13:33 | 14.31263 | 99.72072 | 20751 ft | 454 kts | 304° |
| 2026-04-21 13:33 | 14.33022 | 99.69351 | 20995 ft | 456 kts | 304° |
| 2026-04-21 13:33 | 14.34785 | 99.66622 | 21223 ft | 458 kts | 304° |
| 2026-04-21 13:33 | 14.36556 | 99.63882 | 21452 ft | 460 kts | 304° |
| 2026-04-21 13:34 | 14.38332 | 99.61132 | 21677 ft | 462 kts | 304° |
| 2026-04-21 13:34 | 14.40117 | 99.58367 | 21904 ft | 464 kts | 304° |
| 2026-04-21 13:34 | 14.41911 | 99.55587 | 22130 ft | 465 kts | 304° |
| 2026-04-21 13:34 | 14.43698 | 99.52799 | 22366 ft | 467 kts | 303° |
| 2026-04-21 13:35 | 14.45315 | 99.49879 | 22562 ft | 470 kts | 298° |
| 2026-04-21 13:35 | 14.46809 | 99.46914 | 22764 ft | 472 kts | 298° |
| 2026-04-21 13:35 | 14.48310 | 99.43893 | 22970 ft | 474 kts | 297° |
| 2026-04-21 13:35 | 14.49815 | 99.40860 | 23196 ft | 475 kts | 298° |
| 2026-04-21 13:36 | 14.51327 | 99.37822 | 23420 ft | 477 kts | 298° |
| 2026-04-21 13:36 | 14.52849 | 99.34780 | 23601 ft | 478 kts | 298° |
| 2026-04-21 13:36 | 14.54384 | 99.31722 | 23804 ft | 479 kts | 298° |
| 2026-04-21 13:36 | 14.55921 | 99.28667 | 24018 ft | 479 kts | 298° |
| 2026-04-21 13:37 | 14.57460 | 99.25611 | 24230 ft | 480 kts | 298° |
| 2026-04-21 13:37 | 14.59004 | 99.22543 | 24403 ft | 481 kts | 298° |
| 2026-04-21 13:37 | 14.60547 | 99.19478 | 24613 ft | 481 kts | 298° |
| 2026-04-21 13:37 | 14.62092 | 99.16407 | 24821 ft | 482 kts | 298° |
| 2026-04-21 13:38 | 14.63614 | 99.13380 | 25006 ft | 482 kts | 298° |
| 2026-04-21 13:38 | 14.65160 | 99.10303 | 25189 ft | 483 kts | 298° |
| 2026-04-21 13:38 | 14.66709 | 99.07218 | 25375 ft | 484 kts | 298° |
| 2026-04-21 13:38 | 14.68261 | 99.04127 | 25553 ft | 485 kts | 297° |
| 2026-04-21 13:39 | 14.69197 | 99.02261 | 25665 ft | 485 kts | 297° |
| 2026-04-21 13:39 | 14.70752 | 98.99163 | 25865 ft | 485 kts | 297° |
| 2026-04-21 13:39 | 14.72306 | 98.96064 | 26036 ft | 486 kts | 297° |
| 2026-04-21 13:40 | 14.73859 | 98.92964 | 26212 ft | 487 kts | 297° |
| 2026-04-21 13:40 | 14.75420 | 98.89851 | 26375 ft | 488 kts | 297° |
| 2026-04-21 13:40 | 14.76979 | 98.86737 | 26555 ft | 488 kts | 297° |
| 2026-04-21 13:40 | 14.78541 | 98.83618 | 26721 ft | 489 kts | 297° |
| 2026-04-21 13:41 | 14.80103 | 98.80496 | 26892 ft | 489 kts | 297° |
| 2026-04-21 13:41 | 14.81667 | 98.77369 | 27043 ft | 490 kts | 297° |
| 2026-04-21 13:41 | 14.83234 | 98.74236 | 27205 ft | 491 kts | 297° |
| 2026-04-21 13:41 | 14.84802 | 98.71099 | 27366 ft | 491 kts | 297° |
| 2026-04-21 13:42 | 14.86372 | 98.67956 | 27530 ft | 492 kts | 297° |
| 2026-04-21 13:42 | 14.87941 | 98.64813 | 27657 ft | 492 kts | 297° |
| 2026-04-21 13:42 | 14.89515 | 98.61660 | 27789 ft | 493 kts | 297° |
| 2026-04-21 13:42 | 14.91091 | 98.58503 | 27905 ft | 494 kts | 297° |
| 2026-04-21 13:43 | 14.92650 | 98.55376 | 27992 ft | 496 kts | 297° |
| 2026-04-21 13:43 | 14.94236 | 98.52196 | 28086 ft | 497 kts | 297° |
| 2026-04-21 13:43 | 14.97411 | 98.45823 | 28284 ft | 499 kts | 297° |
| 2026-04-21 13:44 | 15.00598 | 98.39421 | 28487 ft | 500 kts | 297° |
| 2026-04-21 13:44 | 15.02191 | 98.36218 | 28600 ft | 501 kts | 297° |
| 2026-04-21 13:44 | 15.03787 | 98.33008 | 28673 ft | 501 kts | 297° |
| 2026-04-21 13:45 | 15.05383 | 98.29798 | 28774 ft | 502 kts | 297° |
| 2026-04-21 13:45 | 15.06980 | 98.26584 | 28864 ft | 502 kts | 297° |
| 2026-04-21 13:45 | 15.10180 | 98.20141 | 29014 ft | 504 kts | 297° |
| 2026-04-21 13:46 | 15.13415 | 98.13752 | 29171 ft | 505 kts | 297° |
| 2026-04-21 13:46 | 15.16702 | 98.07327 | 29324 ft | 505 kts | 297° |
| 2026-04-21 13:47 | 15.19990 | 98.00885 | 29454 ft | 506 kts | 297° |
| 2026-04-21 13:47 | 15.23274 | 97.94425 | 29575 ft | 507 kts | 297° |
| 2026-04-21 13:48 | 15.26561 | 97.87947 | 29681 ft | 508 kts | 297° |
| 2026-04-21 13:48 | 15.29848 | 97.81462 | 29778 ft | 509 kts | 297° |
| 2026-04-21 13:49 | 15.33118 | 97.75007 | 29858 ft | 509 kts | 297° |
| 2026-04-21 13:49 | 15.36413 | 97.68499 | 29932 ft | 510 kts | 297° |
| 2026-04-21 13:50 | 15.39708 | 97.61983 | 29986 ft | 511 kts | 297° |
| 2026-04-21 13:50 | 15.43009 | 97.55450 | 30051 ft | 511 kts | 297° |
| 2026-04-21 13:51 | 15.46310 | 97.48912 | 30111 ft | 512 kts | 297° |
| 2026-04-21 13:51 | 15.49608 | 97.42373 | 30165 ft | 512 kts | 297° |
| 2026-04-21 13:52 | 15.52912 | 97.35817 | 30206 ft | 513 kts | 297° |
| 2026-04-21 13:52 | 15.56211 | 97.29264 | 30274 ft | 513 kts | 296° |
| 2026-04-21 13:53 | 15.59509 | 97.22709 | 30358 ft | 512 kts | 296° |
| 2026-04-21 13:53 | 15.62782 | 97.16196 | 30434 ft | 512 kts | 296° |
| 2026-04-21 13:54 | 15.66062 | 97.09662 | 30507 ft | 511 kts | 296° |
| 2026-04-21 13:54 | 15.69358 | 97.03092 | 30583 ft | 511 kts | 296° |
| 2026-04-21 13:55 | 15.72636 | 96.96551 | 30653 ft | 511 kts | 296° |
| 2026-04-21 13:55 | 15.75915 | 96.90002 | 30735 ft | 510 kts | 296° |
| 2026-04-21 13:56 | 15.79184 | 96.83468 | 30819 ft | 510 kts | 296° |
| 2026-04-21 13:56 | 15.82450 | 96.76935 | 30911 ft | 509 kts | 296° |
| 2026-04-21 13:57 | 15.85680 | 96.70465 | 31076 ft | 507 kts | 296° |
| 2026-04-21 13:57 | 15.88919 | 96.63973 | 31222 ft | 506 kts | 296° |
| 2026-04-21 13:58 | 15.92149 | 96.57492 | 31343 ft | 505 kts | 296° |
| 2026-04-21 13:58 | 15.95382 | 96.51001 | 31456 ft | 504 kts | 296° |
| 2026-04-21 13:59 | 15.98604 | 96.44524 | 31591 ft | 504 kts | 296° |
| 2026-04-21 13:59 | 16.01822 | 96.38050 | 31718 ft | 503 kts | 296° |
| 2026-04-21 14:00 | 16.05031 | 96.31587 | 31825 ft | 503 kts | 296° |
| 2026-04-21 14:00 | 16.08237 | 96.25126 | 31968 ft | 503 kts | 296° |
| 2026-04-21 14:01 | 16.11421 | 96.18700 | 32057 ft | 503 kts | 296° |
| 2026-04-21 14:01 | 16.14627 | 96.12227 | 32127 ft | 504 kts | 296° |
| 2026-04-21 14:02 | 16.17842 | 96.05729 | 32170 ft | 505 kts | 296° |
| 2026-04-21 14:03 | 16.22668 | 95.95962 | 32213 ft | 507 kts | 296° |
| 2026-04-21 14:03 | 16.25895 | 95.89426 | 32229 ft | 508 kts | 296° |
| 2026-04-21 14:04 | 16.29126 | 95.82873 | 32249 ft | 508 kts | 296° |
| 2026-04-21 14:04 | 16.32354 | 95.76321 | 32271 ft | 509 kts | 296° |
| 2026-04-21 14:05 | 16.35561 | 95.69806 | 32289 ft | 509 kts | 296° |
| 2026-04-21 14:05 | 16.38791 | 95.63236 | 32310 ft | 509 kts | 296° |
| 2026-04-21 14:06 | 16.42021 | 95.56662 | 32333 ft | 509 kts | 296° |
| 2026-04-21 14:06 | 16.45248 | 95.50086 | 32345 ft | 509 kts | 296° |
| 2026-04-21 14:07 | 16.48471 | 95.43511 | 32377 ft | 509 kts | 296° |
| 2026-04-21 14:07 | 16.51694 | 95.36932 | 32390 ft | 509 kts | 296° |
| 2026-04-21 14:08 | 16.54910 | 95.30359 | 32468 ft | 508 kts | 296° |
| 2026-04-21 14:08 | 16.58110 | 95.23812 | 32647 ft | 505 kts | 296° |
| 2026-04-21 14:09 | 16.61278 | 95.17325 | 32679 ft | 505 kts | 296° |
| 2026-04-21 14:09 | 16.64466 | 95.10791 | 32760 ft | 505 kts | 296° |
| 2026-04-21 14:10 | 16.67651 | 95.04257 | 32827 ft | 505 kts | 296° |
| 2026-04-21 14:10 | 16.70829 | 94.97730 | 32919 ft | 504 kts | 296° |
| 2026-04-21 14:11 | 16.73995 | 94.91221 | 33026 ft | 503 kts | 296° |
| 2026-04-21 14:11 | 16.76621 | 94.85818 | 33089 ft | 502 kts | 296° |
| 2026-04-21 14:12 | 16.80355 | 94.78294 | 33217 ft | 501 kts | 299° |
| 2026-04-21 14:12 | 16.83634 | 94.73307 | 33288 ft | 502 kts | 307° |
| 2026-04-21 14:13 | 16.88069 | 94.67667 | 33369 ft | 502 kts | 308° |
| 2026-04-21 14:13 | 16.92500 | 94.62041 | 33498 ft | 500 kts | 307° |
| 2026-04-21 14:14 | 16.96887 | 94.56413 | 33612 ft | 499 kts | 307° |
| 2026-04-21 14:14 | 17.01219 | 94.50822 | 33736 ft | 498 kts | 307° |
| 2026-04-21 14:15 | 17.05567 | 94.45198 | 33857 ft | 496 kts | 307° |
| 2026-04-21 14:15 | 17.09898 | 94.39595 | 33987 ft | 495 kts | 307° |
| 2026-04-21 14:16 | 17.14220 | 94.34000 | 34095 ft | 494 kts | 307° |
| 2026-04-21 14:16 | 17.18533 | 94.28414 | 34221 ft | 493 kts | 307° |
| 2026-04-21 14:17 | 17.22831 | 94.22843 | 34361 ft | 491 kts | 307° |
| 2026-04-21 14:17 | 17.24975 | 94.20062 | 34462 ft | 490 kts | 307° |
| 2026-04-21 14:17 | 17.27111 | 94.17291 | 34559 ft | 488 kts | 307° |
| 2026-04-21 14:17 | 17.29210 | 94.14565 | 34665 ft | 487 kts | 307° |
| 2026-04-21 14:18 | 17.31334 | 94.11807 | 34786 ft | 486 kts | 307° |
| 2026-04-21 14:18 | 17.33449 | 94.09060 | 34910 ft | 484 kts | 307° |
| 2026-04-21 14:18 | 17.35548 | 94.06331 | 35073 ft | 482 kts | 306° |
| 2026-04-21 14:18 | 17.37654 | 94.03594 | 35343 ft | 477 kts | 306° |
| 2026-04-21 14:19 | 17.39717 | 94.00912 | 35696 ft | 470 kts | 306° |
| 2026-04-21 14:19 | 17.43822 | 93.95568 | 35809 ft | 471 kts | 306° |
| 2026-04-21 14:20 | 17.47913 | 93.90237 | 35837 ft | 467 kts | 306° |
| 2026-04-21 14:20 | 17.51976 | 93.84940 | 35843 ft | 465 kts | 306° |
| 2026-04-21 14:21 | 17.56013 | 93.79672 | 35952 ft | 467 kts | 306° |
| 2026-04-21 14:21 | 17.58045 | 93.77019 | 36067 ft | 466 kts | 306° |
| 2026-04-21 14:21 | 17.60077 | 93.74365 | 36164 ft | 466 kts | 306° |
| 2026-04-21 14:22 | 17.64145 | 93.69048 | 36267 ft | 468 kts | 306° |
| 2026-04-21 14:22 | 17.68230 | 93.63705 | 36403 ft | 469 kts | 306° |
| 2026-04-21 14:23 | 17.72316 | 93.58357 | 36504 ft | 470 kts | 306° |
| 2026-04-21 14:23 | 17.76413 | 93.52990 | 36612 ft | 471 kts | 305° |
| 2026-04-21 14:24 | 17.80491 | 93.47644 | 36701 ft | 472 kts | 305° |
| 2026-04-21 14:24 | 17.84598 | 93.42256 | 36784 ft | 473 kts | 305° |
| 2026-04-21 14:25 | 17.88709 | 93.36857 | 36864 ft | 474 kts | 305° |
| 2026-04-21 14:25 | 17.92823 | 93.31449 | 36941 ft | 474 kts | 305° |
| 2026-04-21 14:26 | 17.96949 | 93.26023 | 37023 ft | 474 kts | 305° |
| 2026-04-21 14:26 | 18.01045 | 93.20630 | 37075 ft | 475 kts | 305° |
| 2026-04-21 14:27 | 18.05191 | 93.15167 | 37136 ft | 476 kts | 305° |
| 2026-04-21 14:27 | 18.09290 | 93.09762 | 37190 ft | 476 kts | 304° |
| 2026-04-21 14:28 | 18.13415 | 93.04319 | 37237 ft | 476 kts | 304° |
| 2026-04-21 14:28 | 18.17543 | 92.98866 | 37281 ft | 476 kts | 304° |
| 2026-04-21 14:29 | 18.21667 | 92.93414 | 37324 ft | 477 kts | 304° |
| 2026-04-21 14:29 | 18.25794 | 92.87953 | 37353 ft | 477 kts | 304° |
| 2026-04-21 14:30 | 18.29927 | 92.82480 | 37396 ft | 477 kts | 304° |
| 2026-04-21 14:30 | 18.34055 | 92.77010 | 37434 ft | 477 kts | 304° |
| 2026-04-21 14:31 | 18.38189 | 92.71525 | 37462 ft | 477 kts | 304° |
| 2026-04-21 14:31 | 18.42318 | 92.66044 | 37505 ft | 477 kts | 304° |
| 2026-04-21 14:32 | 18.46445 | 92.60560 | 37523 ft | 478 kts | 304° |
| 2026-04-21 14:32 | 18.47607 | 92.59014 | 37525 ft | 478 kts | 304° |
| 2026-04-21 14:33 | 18.51706 | 92.53561 | 37566 ft | 478 kts | 304° |
| 2026-04-21 14:33 | 18.55836 | 92.48063 | 37585 ft | 478 kts | 303° |
| 2026-04-21 14:34 | 18.59958 | 92.42570 | 37607 ft | 478 kts | 303° |
| 2026-04-21 14:34 | 18.64082 | 92.37069 | 37625 ft | 478 kts | 303° |
| 2026-04-21 14:35 | 18.68204 | 92.31566 | 37643 ft | 478 kts | 303° |
| 2026-04-21 14:35 | 18.72315 | 92.26075 | 37779 ft | 475 kts | 303° |
| 2026-04-21 14:36 | 18.76407 | 92.20603 | 37851 ft | 474 kts | 303° |
| 2026-04-21 14:36 | 18.80469 | 92.15165 | 37860 ft | 474 kts | 303° |
| 2026-04-21 14:37 | 18.84554 | 92.09691 | 37847 ft | 475 kts | 303° |
| 2026-04-21 14:37 | 18.88638 | 92.04214 | 37845 ft | 475 kts | 303° |
| 2026-04-21 14:38 | 18.92724 | 91.98728 | 37848 ft | 475 kts | 303° |
| 2026-04-21 14:38 | 18.96772 | 91.93214 | 37855 ft | 474 kts | 302° |
| 2026-04-21 14:39 | 19.00800 | 91.87690 | 37850 ft | 474 kts | 302° |
| 2026-04-21 14:39 | 19.04824 | 91.82168 | 37846 ft | 474 kts | 302° |
| 2026-04-21 14:40 | 19.08855 | 91.76641 | 37852 ft | 474 kts | 302° |
| 2026-04-21 14:40 | 19.12859 | 91.71150 | 37847 ft | 474 kts | 302° |
| 2026-04-21 14:41 | 19.16885 | 91.65622 | 37846 ft | 474 kts | 302° |
| 2026-04-21 14:41 | 19.20910 | 91.60092 | 37849 ft | 474 kts | 302° |
| 2026-04-21 14:42 | 19.24931 | 91.54562 | 37848 ft | 474 kts | 302° |
| 2026-04-21 14:42 | 19.28953 | 91.49025 | 37844 ft | 474 kts | 302° |
| 2026-04-21 14:43 | 19.32966 | 91.43496 | 37846 ft | 473 kts | 302° |
| 2026-04-21 14:43 | 19.36979 | 91.37961 | 37844 ft | 473 kts | 302° |
| 2026-04-21 14:44 | 19.40985 | 91.32432 | 37842 ft | 473 kts | 302° |
| 2026-04-21 14:44 | 19.44989 | 91.26899 | 37843 ft | 473 kts | 302° |
| 2026-04-21 14:45 | 19.48990 | 91.21367 | 37841 ft | 473 kts | 302° |
| 2026-04-21 14:45 | 19.52961 | 91.15869 | 37841 ft | 473 kts | 302° |
| 2026-04-21 14:46 | 19.56960 | 91.10329 | 37837 ft | 473 kts | 301° |
| 2026-04-21 14:46 | 19.60957 | 91.04787 | 37837 ft | 473 kts | 301° |
| 2026-04-21 14:47 | 19.64951 | 90.99244 | 37838 ft | 472 kts | 301° |
| 2026-04-21 14:47 | 19.68943 | 90.93697 | 37836 ft | 472 kts | 301° |
| 2026-04-21 14:48 | 19.72904 | 90.88189 | 37833 ft | 472 kts | 301° |
| 2026-04-21 14:48 | 19.76891 | 90.82639 | 37836 ft | 472 kts | 301° |
| 2026-04-21 14:49 | 19.80875 | 90.77090 | 37834 ft | 472 kts | 301° |
| 2026-04-21 14:49 | 19.84856 | 90.71539 | 37830 ft | 472 kts | 301° |
| 2026-04-21 14:50 | 19.88162 | 90.66925 | 37826 ft | 472 kts | 301° |
| 2026-04-21 14:50 | 19.92807 | 90.60436 | 37827 ft | 472 kts | 301° |
| 2026-04-21 14:51 | 19.96755 | 90.54916 | 37829 ft | 471 kts | 301° |
| 2026-04-21 14:51 | 20.00720 | 90.49366 | 37826 ft | 471 kts | 301° |
| 2026-04-21 14:52 | 20.04686 | 90.43810 | 37825 ft | 471 kts | 301° |
| 2026-04-21 14:52 | 20.08646 | 90.38256 | 37830 ft | 471 kts | 301° |
| 2026-04-21 14:53 | 20.12603 | 90.32703 | 37832 ft | 470 kts | 301° |
| 2026-04-21 14:53 | 20.16551 | 90.27155 | 37826 ft | 470 kts | 301° |
| 2026-04-21 14:54 | 20.20498 | 90.21605 | 37831 ft | 470 kts | 301° |
| 2026-04-21 14:54 | 20.24413 | 90.16095 | 37826 ft | 469 kts | 301° |
| 2026-04-21 14:55 | 20.28349 | 90.10549 | 37828 ft | 469 kts | 301° |
| 2026-04-21 14:55 | 20.32283 | 90.05000 | 37824 ft | 469 kts | 301° |
| 2026-04-21 14:56 | 20.36212 | 89.99454 | 37826 ft | 469 kts | 301° |
| 2026-04-21 14:56 | 20.40137 | 89.93909 | 37828 ft | 468 kts | 301° |
| 2026-04-21 14:57 | 20.44058 | 89.88363 | 37824 ft | 468 kts | 301° |
| 2026-04-21 14:57 | 20.47978 | 89.82813 | 37825 ft | 468 kts | 301° |
| 2026-04-21 14:58 | 20.51890 | 89.77271 | 37824 ft | 467 kts | 301° |
| 2026-04-21 14:58 | 20.55777 | 89.71756 | 37823 ft | 467 kts | 300° |
| 2026-04-21 14:59 | 20.59682 | 89.66212 | 37826 ft | 467 kts | 300° |
| 2026-04-21 14:59 | 20.63582 | 89.60670 | 37819 ft | 467 kts | 300° |
| 2026-04-21 15:00 | 20.66824 | 89.56059 | 37817 ft | 466 kts | 300° |
| 2026-04-21 15:00 | 20.70715 | 89.50519 | 37811 ft | 466 kts | 300° |
| 2026-04-21 15:01 | 20.74601 | 89.44981 | 37819 ft | 466 kts | 300° |
| 2026-04-21 15:01 | 20.78486 | 89.39438 | 37818 ft | 466 kts | 300° |
| 2026-04-21 15:02 | 20.83025 | 89.32956 | 37812 ft | 466 kts | 300° |
| 2026-04-21 15:02 | 20.83542 | 89.32217 | 37814 ft | 466 kts | 300° |
| 2026-04-21 15:03 | 20.87426 | 89.26663 | 37814 ft | 465 kts | 300° |
| 2026-04-21 15:03 | 20.91301 | 89.21118 | 37811 ft | 465 kts | 300° |
| 2026-04-21 15:04 | 20.95026 | 89.15489 | 37812 ft | 462 kts | 296° |
| 2026-04-21 15:04 | 20.98539 | 89.09792 | 37804 ft | 461 kts | 296° |
| 2026-04-21 15:05 | 21.02083 | 89.04059 | 37801 ft | 461 kts | 296° |
| 2026-04-21 15:05 | 21.07444 | 88.95485 | 37799 ft | 461 kts | 297° |
| 2026-04-21 15:06 | 21.11019 | 88.89782 | 37796 ft | 461 kts | 297° |
| 2026-04-21 15:06 | 21.14595 | 88.84068 | 37788 ft | 461 kts | 297° |
| 2026-04-21 15:07 | 21.18164 | 88.78357 | 37787 ft | 461 kts | 297° |
| 2026-04-21 15:07 | 21.21733 | 88.72639 | 37783 ft | 461 kts | 297° |
| 2026-04-21 15:08 | 21.25283 | 88.66945 | 37781 ft | 462 kts | 297° |
| 2026-04-21 15:08 | 21.28854 | 88.61212 | 37774 ft | 462 kts | 297° |
| 2026-04-21 15:09 | 21.32424 | 88.55477 | 37778 ft | 462 kts | 298° |
| 2026-04-21 15:09 | 21.36018 | 88.49741 | 37772 ft | 463 kts | 298° |
| 2026-04-21 15:10 | 21.39670 | 88.44032 | 37771 ft | 464 kts | 299° |
| 2026-04-21 15:10 | 21.43312 | 88.38348 | 37766 ft | 465 kts | 299° |
| 2026-04-21 15:11 | 21.46975 | 88.32609 | 37765 ft | 466 kts | 299° |
| 2026-04-21 15:11 | 21.50637 | 88.26856 | 37759 ft | 466 kts | 299° |
| 2026-04-21 15:12 | 21.54297 | 88.21098 | 37758 ft | 467 kts | 298° |
| 2026-04-21 15:12 | 21.57962 | 88.15326 | 37756 ft | 467 kts | 298° |
| 2026-04-21 15:13 | 21.61605 | 88.09582 | 37756 ft | 468 kts | 298° |
| 2026-04-21 15:13 | 21.65275 | 88.03790 | 37754 ft | 469 kts | 298° |
| 2026-04-21 15:14 | 21.68942 | 87.97997 | 37758 ft | 469 kts | 298° |
| 2026-04-21 15:14 | 21.72614 | 87.92190 | 37737 ft | 469 kts | 297° |
| 2026-04-21 15:15 | 21.76286 | 87.86378 | 37737 ft | 470 kts | 297° |
| 2026-04-21 15:15 | 21.79952 | 87.80568 | 37737 ft | 470 kts | 297° |
| 2026-04-21 15:16 | 21.83623 | 87.74744 | 37750 ft | 470 kts | 297° |
| 2026-04-21 15:16 | 21.87290 | 87.68919 | 37734 ft | 470 kts | 297° |
| 2026-04-21 15:17 | 21.90934 | 87.63126 | 37733 ft | 470 kts | 296° |
| 2026-04-21 15:17 | 21.94598 | 87.57295 | 37731 ft | 469 kts | 296° |
| 2026-04-21 15:18 | 21.98252 | 87.51472 | 37727 ft | 469 kts | 296° |
| 2026-04-21 15:18 | 22.01906 | 87.45644 | 37723 ft | 469 kts | 296° |
| 2026-04-21 15:19 | 22.05556 | 87.39816 | 37730 ft | 469 kts | 296° |
| 2026-04-21 15:19 | 22.09182 | 87.34020 | 37723 ft | 468 kts | 296° |
| 2026-04-21 15:20 | 22.12822 | 87.28195 | 37721 ft | 468 kts | 296° |
| 2026-04-21 15:20 | 22.16458 | 87.22370 | 37721 ft | 468 kts | 296° |
| 2026-04-21 15:21 | 22.20088 | 87.16548 | 37719 ft | 467 kts | 296° |
| 2026-04-21 15:21 | 22.23720 | 87.10716 | 37722 ft | 467 kts | 296° |
| 2026-04-21 15:22 | 22.27344 | 87.04892 | 37718 ft | 467 kts | 296° |
| 2026-04-21 15:22 | 22.30942 | 86.99104 | 37722 ft | 467 kts | 296° |
| 2026-04-21 15:23 | 22.34559 | 86.93277 | 37726 ft | 467 kts | 296° |
| 2026-04-21 15:23 | 22.38176 | 86.87445 | 37733 ft | 467 kts | 296° |
| 2026-04-21 15:24 | 22.41793 | 86.81607 | 37736 ft | 467 kts | 296° |
| 2026-04-21 15:24 | 22.45404 | 86.75771 | 37736 ft | 466 kts | 296° |
| 2026-04-21 15:25 | 22.49012 | 86.69933 | 37741 ft | 466 kts | 296° |
| 2026-04-21 15:25 | 22.52611 | 86.64104 | 37751 ft | 466 kts | 296° |
| 2026-04-21 15:26 | 22.56186 | 86.58307 | 37749 ft | 466 kts | 296° |
| 2026-04-21 15:26 | 22.59783 | 86.52468 | 37761 ft | 466 kts | 295° |
| 2026-04-21 15:27 | 22.63379 | 86.46625 | 37764 ft | 466 kts | 295° |
| 2026-04-21 15:27 | 22.66974 | 86.40777 | 37765 ft | 466 kts | 295° |
| 2026-04-21 15:28 | 22.70562 | 86.34933 | 37771 ft | 465 kts | 295° |
| 2026-04-21 15:28 | 22.74144 | 86.29091 | 37775 ft | 465 kts | 295° |
| 2026-04-21 15:29 | 22.77700 | 86.23286 | 37769 ft | 465 kts | 295° |
| 2026-04-21 15:29 | 22.81085 | 86.17364 | 37775 ft | 457 kts | 289° |
| 2026-04-21 15:30 | 22.83544 | 86.11109 | 37796 ft | 448 kts | 283° |
| 2026-04-21 15:30 | 22.85702 | 86.04763 | 37785 ft | 448 kts | 283° |
| 2026-04-21 15:31 | 22.87866 | 85.98436 | 37801 ft | 447 kts | 283° |
| 2026-04-21 15:31 | 22.90037 | 85.92122 | 37805 ft | 447 kts | 283° |
| 2026-04-21 15:32 | 22.91124 | 85.88966 | 37802 ft | 447 kts | 283° |
| 2026-04-21 15:32 | 22.92897 | 85.83820 | 37816 ft | 446 kts | 283° |
| 2026-04-21 15:33 | 22.95061 | 85.77525 | 37832 ft | 445 kts | 283° |
| 2026-04-21 15:33 | 22.97221 | 85.71228 | 37836 ft | 445 kts | 283° |
| 2026-04-21 15:34 | 22.99365 | 85.64971 | 37840 ft | 444 kts | 283° |
| 2026-04-21 15:34 | 23.01515 | 85.58687 | 37850 ft | 444 kts | 283° |
| 2026-04-21 15:35 | 23.03663 | 85.52402 | 37866 ft | 444 kts | 283° |
| 2026-04-21 15:35 | 23.05807 | 85.46120 | 37876 ft | 443 kts | 283° |
| 2026-04-21 15:36 | 23.07947 | 85.39834 | 37895 ft | 443 kts | 282° |
| 2026-04-21 15:36 | 23.10083 | 85.33556 | 37893 ft | 443 kts | 282° |
| 2026-04-21 15:37 | 23.12215 | 85.27281 | 37909 ft | 442 kts | 282° |
| 2026-04-21 15:37 | 23.14329 | 85.21047 | 37903 ft | 442 kts | 282° |
| 2026-04-21 15:38 | 23.16451 | 85.14781 | 37904 ft | 442 kts | 282° |
| 2026-04-21 15:38 | 23.18570 | 85.08515 | 37902 ft | 441 kts | 282° |
| 2026-04-21 15:39 | 23.20683 | 85.02256 | 37895 ft | 441 kts | 282° |
| 2026-04-21 15:39 | 23.22790 | 84.96009 | 37895 ft | 440 kts | 282° |
| 2026-04-21 15:40 | 23.24892 | 84.89764 | 37894 ft | 439 kts | 282° |
| 2026-04-21 15:40 | 23.26987 | 84.83530 | 37896 ft | 439 kts | 282° |
| 2026-04-21 15:41 | 23.29077 | 84.77306 | 37892 ft | 438 kts | 282° |
| 2026-04-21 15:41 | 23.31164 | 84.71079 | 37883 ft | 437 kts | 282° |
| 2026-04-21 15:42 | 23.33242 | 84.64867 | 37878 ft | 437 kts | 282° |
| 2026-04-21 15:42 | 23.35320 | 84.58652 | 37883 ft | 436 kts | 282° |
| 2026-04-21 15:43 | 23.37387 | 84.52454 | 37884 ft | 435 kts | 282° |
| 2026-04-21 15:43 | 23.39450 | 84.46263 | 37874 ft | 435 kts | 282° |
| 2026-04-21 15:44 | 23.41496 | 84.40113 | 37879 ft | 434 kts | 281° |
| 2026-04-21 15:44 | 23.43552 | 84.33921 | 37871 ft | 435 kts | 281° |
| 2026-04-21 15:45 | 23.45605 | 84.27732 | 37869 ft | 434 kts | 281° |
| 2026-04-21 15:45 | 23.47650 | 84.21554 | 37862 ft | 434 kts | 281° |
| 2026-04-21 15:46 | 23.49351 | 84.16411 | 37862 ft | 434 kts | 281° |
| 2026-04-21 15:46 | 23.51394 | 84.10225 | 37853 ft | 433 kts | 281° |
| 2026-04-21 15:47 | 23.53434 | 84.04042 | 37852 ft | 432 kts | 281° |
| 2026-04-21 15:47 | 23.55454 | 83.97909 | 37851 ft | 432 kts | 281° |
| 2026-04-21 15:48 | 23.57479 | 83.91748 | 37848 ft | 432 kts | 281° |
| 2026-04-21 15:48 | 23.59503 | 83.85579 | 37834 ft | 432 kts | 281° |
| 2026-04-21 15:49 | 23.61525 | 83.79410 | 37827 ft | 431 kts | 281° |
| 2026-04-21 15:49 | 23.63540 | 83.73250 | 37817 ft | 431 kts | 281° |
| 2026-04-21 15:50 | 23.65556 | 83.67084 | 37834 ft | 432 kts | 281° |
| 2026-04-21 15:50 | 23.67558 | 83.60946 | 37807 ft | 432 kts | 281° |
| 2026-04-21 15:51 | 23.69570 | 83.54770 | 37802 ft | 432 kts | 281° |
| 2026-04-21 15:51 | 23.71579 | 83.48596 | 37801 ft | 431 kts | 281° |
| 2026-04-21 15:52 | 23.73581 | 83.42430 | 37793 ft | 430 kts | 281° |
| 2026-04-21 15:52 | 23.75575 | 83.36305 | 37793 ft | 430 kts | 281° |
| 2026-04-21 15:53 | 23.77575 | 83.30152 | 37795 ft | 430 kts | 281° |
| 2026-04-21 15:53 | 23.79570 | 83.24003 | 37788 ft | 429 kts | 281° |
| 2026-04-21 15:54 | 23.81562 | 83.17851 | 37785 ft | 429 kts | 281° |
| 2026-04-21 15:54 | 23.83551 | 83.11701 | 37788 ft | 429 kts | 281° |
| 2026-04-21 15:55 | 23.85536 | 83.05553 | 37788 ft | 429 kts | 281° |
| 2026-04-21 15:55 | 23.87519 | 82.99401 | 37773 ft | 429 kts | 281° |
| 2026-04-21 15:56 | 23.89486 | 82.93292 | 37777 ft | 429 kts | 281° |
| 2026-04-21 15:56 | 23.91435 | 82.87226 | 37778 ft | 428 kts | 281° |
| 2026-04-21 15:57 | 23.93394 | 82.81122 | 37783 ft | 428 kts | 281° |
| 2026-04-21 15:57 | 23.95362 | 82.74979 | 37773 ft | 428 kts | 281° |
| 2026-04-21 15:58 | 23.97327 | 82.68837 | 37794 ft | 428 kts | 281° |
| 2026-04-21 15:58 | 23.99290 | 82.62690 | 37770 ft | 428 kts | 281° |
| 2026-04-21 15:59 | 24.01250 | 82.56544 | 37778 ft | 427 kts | 281° |
| 2026-04-21 15:59 | 24.03202 | 82.50414 | 37786 ft | 427 kts | 280° |
| 2026-04-21 16:00 | 24.05142 | 82.44312 | 37771 ft | 427 kts | 280° |
| 2026-04-21 16:00 | 24.07092 | 82.38166 | 37784 ft | 427 kts | 280° |
| 2026-04-21 16:01 | 24.09037 | 82.32028 | 37779 ft | 427 kts | 280° |
| 2026-04-21 16:01 | 24.10982 | 82.25883 | 37782 ft | 427 kts | 280° |
| 2026-04-21 16:02 | 24.12254 | 82.21857 | 37780 ft | 427 kts | 280° |
| 2026-04-21 16:02 | 24.13459 | 82.18042 | 37783 ft | 426 kts | 280° |
| 2026-04-21 16:03 | 24.15395 | 82.11899 | 37789 ft | 426 kts | 280° |
| 2026-04-21 16:03 | 24.17328 | 82.05758 | 37785 ft | 426 kts | 280° |
| 2026-04-21 16:04 | 24.19258 | 81.99619 | 37785 ft | 426 kts | 280° |
| 2026-04-21 16:04 | 24.21132 | 81.93464 | 37780 ft | 426 kts | 279° |
| 2026-04-21 16:05 | 24.22972 | 81.87304 | 37782 ft | 425 kts | 279° |
| 2026-04-21 16:05 | 24.24816 | 81.81135 | 37784 ft | 425 kts | 279° |
| 2026-04-21 16:06 | 24.26647 | 81.75014 | 37781 ft | 425 kts | 279° |
| 2026-04-21 16:06 | 24.28495 | 81.68835 | 37784 ft | 426 kts | 280° |
| 2026-04-21 16:07 | 24.30335 | 81.62673 | 37785 ft | 426 kts | 279° |
| 2026-04-21 16:07 | 24.32178 | 81.56491 | 37784 ft | 426 kts | 279° |
| 2026-04-21 16:08 | 24.34924 | 81.47260 | 37782 ft | 426 kts | 280° |
| 2026-04-21 16:09 | 24.36760 | 81.41075 | 37780 ft | 427 kts | 280° |
| 2026-04-21 16:09 | 24.38598 | 81.34877 | 37780 ft | 427 kts | 280° |
| 2026-04-21 16:10 | 24.40434 | 81.28671 | 37784 ft | 427 kts | 280° |
| 2026-04-21 16:10 | 24.42266 | 81.22468 | 37788 ft | 428 kts | 280° |
| 2026-04-21 16:11 | 24.44101 | 81.16247 | 37785 ft | 428 kts | 280° |
| 2026-04-21 16:11 | 24.45921 | 81.10066 | 37776 ft | 428 kts | 280° |
| 2026-04-21 16:12 | 24.47456 | 81.04844 | 37783 ft | 429 kts | 280° |
| 2026-04-21 16:12 | 24.49583 | 80.97599 | 37789 ft | 429 kts | 280° |
| 2026-04-21 16:13 | 24.51409 | 80.91368 | 37797 ft | 428 kts | 280° |
| 2026-04-21 16:13 | 24.53236 | 80.85120 | 37788 ft | 429 kts | 280° |
| 2026-04-21 16:14 | 24.55062 | 80.78862 | 37790 ft | 430 kts | 281° |
| 2026-04-21 16:14 | 24.56877 | 80.72636 | 37792 ft | 431 kts | 281° |
| 2026-04-21 16:15 | 24.58706 | 80.66350 | 37794 ft | 432 kts | 281° |
| 2026-04-21 16:15 | 24.60535 | 80.60053 | 37794 ft | 432 kts | 281° |
| 2026-04-21 16:16 | 24.62364 | 80.53745 | 37791 ft | 433 kts | 281° |
| 2026-04-21 16:16 | 24.64195 | 80.47420 | 37791 ft | 434 kts | 281° |
| 2026-04-21 16:17 | 24.66014 | 80.41126 | 37794 ft | 435 kts | 281° |
| 2026-04-21 16:17 | 24.67847 | 80.34771 | 37794 ft | 436 kts | 281° |
| 2026-04-21 16:18 | 24.69678 | 80.28410 | 37792 ft | 437 kts | 281° |
| 2026-04-21 16:18 | 24.71514 | 80.22027 | 37786 ft | 438 kts | 281° |
| 2026-04-21 16:19 | 24.73350 | 80.15627 | 37798 ft | 439 kts | 281° |
| 2026-04-21 16:19 | 24.75187 | 80.09213 | 37803 ft | 440 kts | 281° |
| 2026-04-21 16:20 | 24.77026 | 80.02778 | 37799 ft | 441 kts | 281° |
| 2026-04-21 16:20 | 24.78855 | 79.96375 | 37794 ft | 442 kts | 281° |
| 2026-04-21 16:21 | 24.80997 | 79.89996 | 37802 ft | 448 kts | 288° |
| 2026-04-21 16:21 | 24.83988 | 79.83915 | 37810 ft | 453 kts | 292° |
| 2026-04-21 16:22 | 24.87096 | 79.77862 | 37805 ft | 455 kts | 293° |
| 2026-04-21 16:22 | 24.90196 | 79.71779 | 37808 ft | 455 kts | 293° |
| 2026-04-21 16:23 | 24.93286 | 79.65678 | 37804 ft | 456 kts | 293° |
| 2026-04-21 16:23 | 24.96376 | 79.59558 | 37803 ft | 457 kts | 293° |
| 2026-04-21 16:24 | 24.99450 | 79.53463 | 37801 ft | 458 kts | 293° |
| 2026-04-21 16:24 | 25.02544 | 79.47318 | 37807 ft | 458 kts | 293° |
| 2026-04-21 16:25 | 25.05642 | 79.41160 | 37804 ft | 459 kts | 293° |
| 2026-04-21 16:25 | 25.08743 | 79.34988 | 37804 ft | 460 kts | 293° |
| 2026-04-21 16:26 | 25.11843 | 79.28808 | 37801 ft | 460 kts | 294° |
| 2026-04-21 16:26 | 25.14929 | 79.22651 | 37796 ft | 461 kts | 294° |
| 2026-04-21 16:27 | 25.18029 | 79.16455 | 37801 ft | 461 kts | 294° |
| 2026-04-21 16:27 | 25.21130 | 79.10249 | 37808 ft | 462 kts | 294° |
| 2026-04-21 16:28 | 25.24232 | 79.04032 | 37799 ft | 462 kts | 294° |
| 2026-04-21 16:28 | 25.27331 | 78.97814 | 37800 ft | 463 kts | 294° |
| 2026-04-21 16:29 | 25.29914 | 78.92624 | 37795 ft | 463 kts | 294° |
| 2026-04-21 16:29 | 25.33540 | 78.85329 | 37800 ft | 463 kts | 294° |
| 2026-04-21 16:30 | 25.36643 | 78.79076 | 37800 ft | 464 kts | 294° |
| 2026-04-21 16:30 | 25.39726 | 78.72857 | 37799 ft | 464 kts | 294° |
| 2026-04-21 16:31 | 25.42825 | 78.66596 | 37798 ft | 464 kts | 294° |
| 2026-04-21 16:31 | 25.45929 | 78.60316 | 37795 ft | 465 kts | 294° |
| 2026-04-21 16:32 | 25.49027 | 78.54038 | 37793 ft | 465 kts | 294° |
| 2026-04-21 16:32 | 25.49870 | 78.52329 | 37798 ft | 465 kts | 294° |
| 2026-04-21 16:33 | 25.52968 | 78.46042 | 37795 ft | 465 kts | 294° |
| 2026-04-21 16:33 | 25.55543 | 78.40808 | 37795 ft | 465 kts | 294° |
| 2026-04-21 16:34 | 25.58641 | 78.34505 | 37796 ft | 466 kts | 294° |
| 2026-04-21 16:34 | 25.62247 | 78.27174 | 37796 ft | 466 kts | 294° |
| 2026-04-21 16:35 | 25.64872 | 78.21897 | 37795 ft | 466 kts | 294° |
| 2026-04-21 16:35 | 25.67992 | 78.15636 | 37791 ft | 467 kts | 294° |
| 2026-04-21 16:36 | 25.71124 | 78.09332 | 37792 ft | 467 kts | 294° |
| 2026-04-21 16:36 | 25.74251 | 78.03023 | 37794 ft | 467 kts | 294° |
| 2026-04-21 16:37 | 25.77373 | 77.96712 | 37794 ft | 467 kts | 294° |
| 2026-04-21 16:37 | 25.80494 | 77.90397 | 37798 ft | 466 kts | 294° |
| 2026-04-21 16:38 | 25.83613 | 77.84074 | 37796 ft | 467 kts | 294° |
| 2026-04-21 16:38 | 25.86730 | 77.77747 | 37796 ft | 467 kts | 294° |
| 2026-04-21 16:39 | 25.89847 | 77.71413 | 37797 ft | 467 kts | 294° |
| 2026-04-21 16:39 | 25.92958 | 77.65080 | 37801 ft | 467 kts | 294° |
| 2026-04-21 16:40 | 25.96068 | 77.58743 | 37794 ft | 467 kts | 294° |
| 2026-04-21 16:40 | 25.99179 | 77.52392 | 37801 ft | 467 kts | 294° |
| 2026-04-21 16:41 | 26.02267 | 77.46079 | 37797 ft | 468 kts | 295° |
| 2026-04-21 16:41 | 26.05370 | 77.39728 | 37796 ft | 468 kts | 295° |
| 2026-04-21 16:42 | 26.08476 | 77.33361 | 37802 ft | 468 kts | 295° |
| 2026-04-21 16:42 | 26.11577 | 77.26995 | 37791 ft | 468 kts | 295° |
| 2026-04-21 16:43 | 26.14677 | 77.20621 | 37804 ft | 468 kts | 295° |
| 2026-04-21 16:43 | 26.17768 | 77.14231 | 37800 ft | 468 kts | 295° |
| 2026-04-21 16:44 | 26.20849 | 77.07837 | 37793 ft | 468 kts | 295° |
| 2026-04-21 16:44 | 26.23904 | 77.01491 | 37802 ft | 468 kts | 295° |
| 2026-04-21 16:45 | 26.26981 | 76.95094 | 37804 ft | 469 kts | 295° |
| 2026-04-21 16:45 | 26.30064 | 76.88674 | 37805 ft | 469 kts | 295° |
| 2026-04-21 16:46 | 26.33142 | 76.82256 | 37796 ft | 469 kts | 295° |
| 2026-04-21 16:46 | 26.36215 | 76.75840 | 37816 ft | 469 kts | 295° |
| 2026-04-21 16:47 | 26.39286 | 76.69417 | 37821 ft | 469 kts | 295° |
| 2026-04-21 16:47 | 26.42339 | 76.63023 | 37811 ft | 470 kts | 295° |
| 2026-04-21 16:48 | 26.45406 | 76.56591 | 37814 ft | 470 kts | 295° |
| 2026-04-21 16:48 | 26.48546 | 76.50178 | 37818 ft | 471 kts | 297° |
| 2026-04-21 16:49 | 26.51840 | 76.43853 | 37820 ft | 471 kts | 297° |
| 2026-04-21 16:49 | 26.55143 | 76.37516 | 37822 ft | 471 kts | 297° |
| 2026-04-21 16:50 | 26.58415 | 76.31173 | 37822 ft | 472 kts | 297° |
| 2026-04-21 16:50 | 26.61658 | 76.24850 | 37826 ft | 472 kts | 297° |
| 2026-04-21 16:51 | 26.64923 | 76.18473 | 37830 ft | 472 kts | 297° |
| 2026-04-21 16:51 | 26.68181 | 76.12102 | 37834 ft | 472 kts | 297° |
| 2026-04-21 16:52 | 26.71443 | 76.05717 | 37831 ft | 473 kts | 297° |
| 2026-04-21 16:52 | 26.74705 | 75.99321 | 37833 ft | 473 kts | 297° |
| 2026-04-21 16:53 | 26.77964 | 75.92922 | 37830 ft | 473 kts | 297° |
| 2026-04-21 16:53 | 26.81221 | 75.86518 | 37830 ft | 473 kts | 297° |
| 2026-04-21 16:54 | 26.84415 | 75.80078 | 37830 ft | 473 kts | 295° |
| 2026-04-21 16:54 | 26.87394 | 75.73570 | 37831 ft | 472 kts | 294° |
| 2026-04-21 16:55 | 26.90374 | 75.67010 | 37834 ft | 473 kts | 295° |
| 2026-04-21 16:55 | 26.93383 | 75.60455 | 37836 ft | 473 kts | 295° |
| 2026-04-21 16:56 | 26.96400 | 75.53905 | 37839 ft | 473 kts | 295° |
| 2026-04-21 16:56 | 26.99418 | 75.47342 | 37843 ft | 473 kts | 295° |
| 2026-04-21 16:57 | 27.02434 | 75.40768 | 37844 ft | 473 kts | 295° |
| 2026-04-21 16:57 | 27.05442 | 75.34203 | 37844 ft | 474 kts | 295° |
| 2026-04-21 16:58 | 27.08458 | 75.27626 | 37836 ft | 474 kts | 295° |
| 2026-04-21 16:58 | 27.11456 | 75.21089 | 37837 ft | 474 kts | 295° |
| 2026-04-21 16:59 | 27.14472 | 75.14500 | 37837 ft | 474 kts | 295° |
| 2026-04-21 16:59 | 27.17484 | 75.07907 | 37841 ft | 474 kts | 295° |
| 2026-04-21 17:00 | 27.20494 | 75.01310 | 37833 ft | 474 kts | 295° |
| 2026-04-21 17:00 | 27.22992 | 74.95823 | 37834 ft | 474 kts | 295° |
| 2026-04-21 17:01 | 27.26500 | 74.88108 | 37834 ft | 474 kts | 295° |
| 2026-04-21 17:01 | 27.29484 | 74.81538 | 37828 ft | 474 kts | 295° |
| 2026-04-21 17:02 | 27.32479 | 74.74931 | 37823 ft | 475 kts | 295° |
| 2026-04-21 17:02 | 27.33291 | 74.73136 | 37822 ft | 475 kts | 295° |
| 2026-04-21 17:03 | 27.36287 | 74.66514 | 37820 ft | 474 kts | 295° |
| 2026-04-21 17:03 | 27.39279 | 74.59888 | 37813 ft | 474 kts | 295° |
| 2026-04-21 17:04 | 27.42267 | 74.53261 | 37819 ft | 474 kts | 295° |
| 2026-04-21 17:04 | 27.45232 | 74.46677 | 37811 ft | 474 kts | 295° |
| 2026-04-21 17:05 | 27.48212 | 74.40047 | 37808 ft | 474 kts | 295° |
| 2026-04-21 17:05 | 27.51187 | 74.33416 | 37808 ft | 474 kts | 295° |
| 2026-04-21 17:06 | 27.54153 | 74.26797 | 37807 ft | 473 kts | 296° |
| 2026-04-21 17:06 | 27.57119 | 74.20166 | 37800 ft | 473 kts | 296° |
| 2026-04-21 17:07 | 27.59577 | 74.14664 | 37801 ft | 473 kts | 296° |
| 2026-04-21 17:07 | 27.63012 | 74.06960 | 37800 ft | 472 kts | 296° |
| 2026-04-21 17:08 | 27.65961 | 74.00336 | 37798 ft | 472 kts | 296° |
| 2026-04-21 17:08 | 27.68905 | 73.93713 | 37792 ft | 472 kts | 296° |
| 2026-04-21 17:09 | 27.73314 | 73.83774 | 37785 ft | 471 kts | 296° |
| 2026-04-21 17:09 | 27.76369 | 73.77228 | 37790 ft | 471 kts | 298° |
| 2026-04-21 17:10 | 27.79519 | 73.70738 | 37787 ft | 471 kts | 298° |
| 2026-04-21 17:10 | 27.82640 | 73.64273 | 37787 ft | 471 kts | 298° |
| 2026-04-21 17:11 | 27.85753 | 73.57765 | 37782 ft | 471 kts | 298° |
| 2026-04-21 17:11 | 27.88856 | 73.51246 | 37780 ft | 470 kts | 298° |
| 2026-04-21 17:12 | 27.91955 | 73.44723 | 37773 ft | 470 kts | 298° |
| 2026-04-21 17:12 | 27.95052 | 73.38198 | 37778 ft | 470 kts | 298° |
| 2026-04-21 17:13 | 27.98142 | 73.31677 | 37773 ft | 470 kts | 298° |
| 2026-04-21 17:13 | 28.01212 | 73.25190 | 37774 ft | 470 kts | 298° |
| 2026-04-21 17:14 | 28.04295 | 73.18665 | 37767 ft | 470 kts | 298° |
| 2026-04-21 17:14 | 28.07376 | 73.12132 | 37775 ft | 470 kts | 298° |
| 2026-04-21 17:15 | 28.10453 | 73.05598 | 37766 ft | 470 kts | 298° |
| 2026-04-21 17:15 | 28.13528 | 72.99060 | 37771 ft | 470 kts | 298° |
| 2026-04-21 17:16 | 28.16581 | 72.92556 | 37762 ft | 470 kts | 298° |
| 2026-04-21 17:16 | 28.19646 | 72.86016 | 37771 ft | 470 kts | 298° |
| 2026-04-21 17:17 | 28.22714 | 72.79460 | 37762 ft | 470 kts | 298° |
| 2026-04-21 17:17 | 28.25774 | 72.72911 | 37772 ft | 470 kts | 298° |
| 2026-04-21 17:18 | 28.28833 | 72.66353 | 37763 ft | 470 kts | 298° |
| 2026-04-21 17:18 | 28.31887 | 72.59795 | 37772 ft | 470 kts | 298° |
| 2026-04-21 17:19 | 28.34939 | 72.53231 | 37795 ft | 470 kts | 298° |
| 2026-04-21 17:19 | 28.37979 | 72.46683 | 37896 ft | 468 kts | 298° |
| 2026-04-21 17:20 | 28.41015 | 72.40131 | 37932 ft | 468 kts | 298° |
| 2026-04-21 17:20 | 28.43533 | 72.34690 | 37952 ft | 468 kts | 298° |
| 2026-04-21 17:21 | 28.47254 | 72.27213 | 37998 ft | 467 kts | 306° |
| 2026-04-21 17:21 | 28.51378 | 72.21523 | 38029 ft | 467 kts | 314° |
| 2026-04-21 17:22 | 28.55347 | 72.17371 | 38041 ft | 466 kts | 318° |
| 2026-04-21 17:22 | 28.60246 | 72.12527 | 38083 ft | 466 kts | 318° |
| 2026-04-21 17:23 | 28.65146 | 72.07660 | 38116 ft | 466 kts | 318° |
| 2026-04-21 17:23 | 28.70008 | 72.02778 | 38155 ft | 466 kts | 318° |
| 2026-04-21 17:24 | 28.74829 | 71.97913 | 38179 ft | 465 kts | 318° |
| 2026-04-21 17:24 | 28.79667 | 71.93022 | 38212 ft | 465 kts | 318° |
| 2026-04-21 17:25 | 28.84505 | 71.88127 | 38237 ft | 465 kts | 318° |
| 2026-04-21 17:25 | 28.89345 | 71.83225 | 38277 ft | 464 kts | 318° |
| 2026-04-21 17:26 | 28.94171 | 71.78331 | 38295 ft | 464 kts | 318° |
| 2026-04-21 17:26 | 28.98995 | 71.73431 | 38318 ft | 464 kts | 318° |
| 2026-04-21 17:27 | 29.03819 | 71.68527 | 38358 ft | 463 kts | 318° |
| 2026-04-21 17:27 | 29.08629 | 71.63629 | 38378 ft | 463 kts | 318° |
| 2026-04-21 17:28 | 29.13436 | 71.58727 | 38415 ft | 462 kts | 318° |
| 2026-04-21 17:28 | 29.18204 | 71.53861 | 38335 ft | 462 kts | 317° |
| 2026-04-21 17:29 | 29.22995 | 71.48962 | 38365 ft | 462 kts | 317° |
| 2026-04-21 17:29 | 29.27794 | 71.44051 | 38388 ft | 462 kts | 317° |
| 2026-04-21 17:30 | 29.32589 | 71.39157 | 38424 ft | 462 kts | 317° |
| 2026-04-21 17:30 | 29.37398 | 71.34288 | 38446 ft | 461 kts | 317° |
| 2026-04-21 17:31 | 29.42209 | 71.29411 | 38463 ft | 461 kts | 317° |
| 2026-04-21 17:31 | 29.47015 | 71.24524 | 38484 ft | 461 kts | 317° |
| 2026-04-21 17:32 | 29.50197 | 71.21284 | 38501 ft | 461 kts | 317° |
| 2026-04-21 17:32 | 29.53247 | 71.18176 | 38520 ft | 461 kts | 317° |
| 2026-04-21 17:33 | 29.58040 | 71.13286 | 38533 ft | 461 kts | 317° |
| 2026-04-21 17:33 | 29.62833 | 71.08388 | 38570 ft | 461 kts | 317° |
| 2026-04-21 17:34 | 29.67618 | 71.03495 | 38595 ft | 461 kts | 317° |
| 2026-04-21 17:34 | 29.72517 | 70.98735 | 38613 ft | 461 kts | 320° |
| 2026-04-21 17:35 | 29.77527 | 70.94128 | 38640 ft | 461 kts | 320° |
| 2026-04-21 17:35 | 29.82525 | 70.89504 | 38672 ft | 460 kts | 319° |
| 2026-04-21 17:36 | 29.87468 | 70.84878 | 38697 ft | 460 kts | 319° |
| 2026-04-21 17:36 | 29.92428 | 70.80215 | 38723 ft | 460 kts | 319° |
| 2026-04-21 17:37 | 29.97383 | 70.75549 | 38749 ft | 459 kts | 319° |
| 2026-04-21 17:37 | 30.02331 | 70.70887 | 38790 ft | 459 kts | 319° |
| 2026-04-21 17:38 | 30.07268 | 70.66229 | 38810 ft | 458 kts | 319° |
| 2026-04-21 17:38 | 30.12204 | 70.61566 | 38839 ft | 458 kts | 319° |
| 2026-04-21 17:39 | 30.17138 | 70.56898 | 38866 ft | 457 kts | 319° |
| 2026-04-21 17:39 | 30.22028 | 70.52267 | 38898 ft | 457 kts | 319° |
| 2026-04-21 17:40 | 30.26981 | 70.47656 | 38931 ft | 457 kts | 320° |
| 2026-04-21 17:40 | 30.31964 | 70.43079 | 38972 ft | 457 kts | 320° |
| 2026-04-21 17:41 | 30.36940 | 70.38497 | 39019 ft | 457 kts | 320° |
| 2026-04-21 17:41 | 30.41912 | 70.33901 | 39045 ft | 457 kts | 320° |
| 2026-04-21 17:42 | 30.46885 | 70.29293 | 39076 ft | 456 kts | 319° |
| 2026-04-21 17:42 | 30.51842 | 70.24692 | 39131 ft | 456 kts | 319° |
| 2026-04-21 17:43 | 30.56793 | 70.20090 | 39208 ft | 456 kts | 319° |
| 2026-04-21 17:43 | 30.61737 | 70.15489 | 39295 ft | 455 kts | 319° |
| 2026-04-21 17:44 | 30.66649 | 70.10913 | 39330 ft | 455 kts | 319° |
| 2026-04-21 17:44 | 30.71583 | 70.06310 | 39375 ft | 454 kts | 319° |
| 2026-04-21 17:45 | 30.76506 | 70.01710 | 39426 ft | 454 kts | 319° |
| 2026-04-21 17:45 | 30.81417 | 69.97116 | 39511 ft | 453 kts | 319° |
| 2026-04-21 17:46 | 30.86333 | 69.92510 | 39542 ft | 454 kts | 319° |
| 2026-04-21 17:46 | 30.91258 | 69.87889 | 39571 ft | 454 kts | 318° |
| 2026-04-21 17:47 | 30.96185 | 69.83261 | 39604 ft | 455 kts | 318° |
| 2026-04-21 17:47 | 31.01079 | 69.78658 | 39644 ft | 455 kts | 318° |
| 2026-04-21 17:48 | 31.06002 | 69.74020 | 39679 ft | 455 kts | 318° |
| 2026-04-21 17:48 | 31.10927 | 69.69374 | 39694 ft | 455 kts | 318° |
| 2026-04-21 17:49 | 31.15854 | 69.64720 | 39720 ft | 455 kts | 318° |
| 2026-04-21 17:49 | 31.20775 | 69.60066 | 39845 ft | 453 kts | 318° |
| 2026-04-21 17:50 | 31.25661 | 69.55438 | 39916 ft | 452 kts | 318° |
| 2026-04-21 17:50 | 31.30512 | 69.50835 | 39918 ft | 452 kts | 318° |
| 2026-04-21 17:51 | 31.35300 | 69.46074 | 39924 ft | 450 kts | 313° |
| 2026-04-21 17:51 | 31.39384 | 69.40562 | 39923 ft | 448 kts | 306° |
| 2026-04-21 17:52 | 31.43231 | 69.34816 | 39915 ft | 448 kts | 306° |
| 2026-04-21 17:52 | 31.47089 | 69.29078 | 39915 ft | 448 kts | 306° |
| 2026-04-21 17:53 | 31.50957 | 69.23355 | 39918 ft | 448 kts | 306° |
| 2026-04-21 17:53 | 31.54828 | 69.17630 | 39922 ft | 447 kts | 306° |
| 2026-04-21 17:54 | 31.58691 | 69.11904 | 39935 ft | 448 kts | 306° |
| 2026-04-21 17:54 | 31.62530 | 69.06203 | 39938 ft | 448 kts | 306° |
| 2026-04-21 17:55 | 31.66396 | 69.00457 | 39929 ft | 449 kts | 306° |
| 2026-04-21 17:55 | 31.70361 | 68.94773 | 39939 ft | 450 kts | 308° |
| 2026-04-21 17:56 | 31.74414 | 68.89166 | 39949 ft | 450 kts | 308° |
| 2026-04-21 17:56 | 31.78472 | 68.83534 | 39945 ft | 451 kts | 307° |
| 2026-04-21 17:57 | 31.82508 | 68.77888 | 39953 ft | 451 kts | 307° |
| 2026-04-21 17:57 | 31.86542 | 68.72222 | 39955 ft | 451 kts | 307° |
| 2026-04-21 17:58 | 31.90570 | 68.66553 | 39966 ft | 452 kts | 307° |
| 2026-04-21 17:58 | 31.94582 | 68.60899 | 39958 ft | 452 kts | 307° |
| 2026-04-21 17:59 | 31.98624 | 68.55195 | 39975 ft | 452 kts | 307° |
| 2026-04-21 17:59 | 32.02653 | 68.49503 | 39985 ft | 452 kts | 307° |
| 2026-04-21 18:00 | 32.06657 | 68.43838 | 39968 ft | 452 kts | 307° |
| 2026-04-21 18:00 | 32.10685 | 68.38126 | 39987 ft | 452 kts | 307° |
| 2026-04-21 18:01 | 32.14713 | 68.32408 | 39994 ft | 453 kts | 307° |
| 2026-04-21 18:01 | 32.18737 | 68.26687 | 39975 ft | 453 kts | 307° |
| 2026-04-21 18:02 | 32.20748 | 68.23824 | 39978 ft | 453 kts | 307° |
| 2026-04-21 18:02 | 32.23905 | 68.19327 | 39975 ft | 453 kts | 307° |
| 2026-04-21 18:03 | 32.27898 | 68.13630 | 39977 ft | 453 kts | 307° |
| 2026-04-21 18:03 | 32.31915 | 68.07889 | 39968 ft | 453 kts | 307° |
| 2026-04-21 18:04 | 32.35933 | 68.02139 | 39966 ft | 453 kts | 307° |
| 2026-04-21 18:04 | 32.39951 | 67.96380 | 39963 ft | 453 kts | 307° |
| 2026-04-21 18:05 | 32.43960 | 67.90623 | 39958 ft | 453 kts | 307° |
| 2026-04-21 18:05 | 32.47974 | 67.84852 | 39958 ft | 453 kts | 307° |
| 2026-04-21 18:06 | 32.52007 | 67.79109 | 39951 ft | 453 kts | 308° |
| 2026-04-21 18:06 | 32.56185 | 67.73548 | 39953 ft | 454 kts | 309° |
| 2026-04-21 18:07 | 32.59721 | 67.68881 | 39951 ft | 453 kts | 309° |
| 2026-04-21 18:07 | 32.63885 | 67.63326 | 39956 ft | 453 kts | 308° |
| 2026-04-21 18:08 | 32.68061 | 67.57716 | 39964 ft | 453 kts | 308° |
| 2026-04-21 18:08 | 32.72235 | 67.52098 | 39973 ft | 453 kts | 308° |
| 2026-04-21 18:09 | 32.76403 | 67.46482 | 39984 ft | 453 kts | 308° |
| 2026-04-21 18:09 | 32.80516 | 67.40805 | 39986 ft | 452 kts | 307° |
| 2026-04-21 18:10 | 32.84528 | 67.35042 | 40003 ft | 452 kts | 306° |
| 2026-04-21 18:10 | 32.88535 | 67.29267 | 40025 ft | 453 kts | 306° |
| 2026-04-21 18:11 | 32.92567 | 67.23478 | 40028 ft | 454 kts | 307° |
| 2026-04-21 18:11 | 32.96574 | 67.17731 | 40039 ft | 454 kts | 306° |
| 2026-04-21 18:12 | 33.00600 | 67.11951 | 40048 ft | 453 kts | 307° |
| 2026-04-21 18:12 | 33.04622 | 67.06165 | 40060 ft | 453 kts | 307° |
| 2026-04-21 18:13 | 33.08643 | 67.00372 | 40065 ft | 453 kts | 307° |
| 2026-04-21 18:13 | 33.12660 | 66.94572 | 40072 ft | 454 kts | 307° |
| 2026-04-21 18:14 | 33.18699 | 66.85841 | 40064 ft | 454 kts | 307° |
| 2026-04-21 18:15 | 33.22690 | 66.80059 | 40054 ft | 454 kts | 307° |
| 2026-04-21 18:15 | 33.26711 | 66.74222 | 40039 ft | 455 kts | 307° |
| 2026-04-21 18:16 | 33.30731 | 66.68379 | 40031 ft | 454 kts | 307° |
| 2026-04-21 18:16 | 33.34741 | 66.62540 | 40016 ft | 455 kts | 307° |
| 2026-04-21 18:17 | 33.38756 | 66.56685 | 39986 ft | 455 kts | 306° |
| 2026-04-21 18:17 | 33.42761 | 66.50835 | 39979 ft | 453 kts | 306° |
| 2026-04-21 18:18 | 33.46757 | 66.44988 | 39981 ft | 453 kts | 306° |
| 2026-04-21 18:18 | 33.50715 | 66.39170 | 39975 ft | 454 kts | 306° |
| 2026-04-21 18:19 | 33.54696 | 66.33300 | 39983 ft | 453 kts | 306° |
| 2026-04-21 18:19 | 33.58677 | 66.27420 | 39979 ft | 454 kts | 306° |
| 2026-04-21 18:20 | 33.62660 | 66.21532 | 39978 ft | 454 kts | 306° |
| 2026-04-21 18:20 | 33.66639 | 66.15636 | 39982 ft | 454 kts | 306° |
| 2026-04-21 18:21 | 33.70594 | 66.09771 | 39970 ft | 454 kts | 306° |
| 2026-04-21 18:21 | 33.74560 | 66.03879 | 39982 ft | 454 kts | 306° |
| 2026-04-21 18:22 | 33.78531 | 65.97968 | 39994 ft | 455 kts | 305° |
| 2026-04-21 18:22 | 33.82507 | 65.92038 | 40004 ft | 455 kts | 305° |
| 2026-04-21 18:23 | 33.86485 | 65.86098 | 40007 ft | 456 kts | 305° |
| 2026-04-21 18:23 | 33.90464 | 65.80146 | 40003 ft | 457 kts | 305° |
| 2026-04-21 18:24 | 33.94456 | 65.74166 | 40013 ft | 458 kts | 305° |
| 2026-04-21 18:24 | 33.98451 | 65.68169 | 40013 ft | 459 kts | 305° |
| 2026-04-21 18:25 | 34.02433 | 65.62182 | 40013 ft | 460 kts | 305° |
| 2026-04-21 18:25 | 34.06442 | 65.56146 | 40012 ft | 461 kts | 305° |
| 2026-04-21 18:26 | 34.10450 | 65.50108 | 40008 ft | 461 kts | 304° |
| 2026-04-21 18:26 | 34.14464 | 65.44056 | 40014 ft | 462 kts | 304° |
| 2026-04-21 18:27 | 34.18479 | 65.37993 | 40009 ft | 462 kts | 304° |
| 2026-04-21 18:27 | 34.22492 | 65.31920 | 40002 ft | 462 kts | 304° |
| 2026-04-21 18:28 | 34.26507 | 65.25832 | 39982 ft | 463 kts | 304° |
| 2026-04-21 18:28 | 34.30489 | 65.19785 | 39997 ft | 462 kts | 304° |
| 2026-04-21 18:29 | 34.34487 | 65.13702 | 39994 ft | 462 kts | 304° |
| 2026-04-21 18:29 | 34.38491 | 65.07602 | 39984 ft | 462 kts | 304° |
| 2026-04-21 18:30 | 34.42487 | 65.01501 | 39985 ft | 462 kts | 304° |
| 2026-04-21 18:30 | 34.46481 | 64.95393 | 39986 ft | 462 kts | 304° |
| 2026-04-21 18:31 | 34.50446 | 64.89321 | 39965 ft | 462 kts | 304° |
| 2026-04-21 18:31 | 34.54431 | 64.83201 | 39982 ft | 462 kts | 304° |
| 2026-04-21 18:32 | 34.58417 | 64.77065 | 39963 ft | 462 kts | 304° |
| 2026-04-21 18:32 | 34.59503 | 64.75392 | 39979 ft | 462 kts | 304° |
| 2026-04-21 18:33 | 34.63475 | 64.69263 | 39963 ft | 462 kts | 303° |
| 2026-04-21 18:33 | 34.67448 | 64.63122 | 39957 ft | 462 kts | 303° |
| 2026-04-21 18:34 | 34.71416 | 64.56978 | 39962 ft | 462 kts | 303° |
| 2026-04-21 18:34 | 34.75362 | 64.50858 | 39957 ft | 463 kts | 303° |
| 2026-04-21 18:35 | 34.78686 | 64.45694 | 39953 ft | 462 kts | 303° |
| 2026-04-21 18:35 | 34.83295 | 64.38524 | 39954 ft | 463 kts | 303° |
| 2026-04-21 18:36 | 34.87256 | 64.32347 | 39949 ft | 463 kts | 303° |
| 2026-04-21 18:36 | 34.91218 | 64.26158 | 39941 ft | 463 kts | 303° |
| 2026-04-21 18:37 | 34.95175 | 64.19972 | 39943 ft | 462 kts | 303° |
| 2026-04-21 18:37 | 34.99129 | 64.13768 | 39937 ft | 464 kts | 303° |
| 2026-04-21 18:38 | 35.03092 | 64.07546 | 39934 ft | 464 kts | 303° |
| 2026-04-21 18:38 | 35.07048 | 64.01327 | 39939 ft | 464 kts | 303° |
| 2026-04-21 18:39 | 35.10995 | 63.95110 | 39941 ft | 463 kts | 303° |
| 2026-04-21 18:39 | 35.14939 | 63.88882 | 39941 ft | 463 kts | 302° |
| 2026-04-21 18:40 | 35.18881 | 63.82647 | 39935 ft | 463 kts | 302° |
| 2026-04-21 18:40 | 35.22160 | 63.77453 | 39934 ft | 463 kts | 302° |
| 2026-04-21 18:41 | 35.26739 | 63.70188 | 39926 ft | 464 kts | 302° |
| 2026-04-21 18:41 | 35.30678 | 63.63927 | 39917 ft | 464 kts | 302° |
| 2026-04-21 18:42 | 35.34623 | 63.57672 | 39903 ft | 465 kts | 302° |
| 2026-04-21 18:42 | 35.38580 | 63.51394 | 39899 ft | 465 kts | 302° |
| 2026-04-21 18:43 | 35.42529 | 63.45112 | 39876 ft | 465 kts | 302° |
| 2026-04-21 18:43 | 35.46454 | 63.38856 | 39890 ft | 465 kts | 302° |
| 2026-04-21 18:44 | 35.50402 | 63.32551 | 39865 ft | 465 kts | 302° |
| 2026-04-21 18:44 | 35.54351 | 63.26232 | 39860 ft | 465 kts | 302° |
| 2026-04-21 18:45 | 35.58295 | 63.19912 | 39865 ft | 465 kts | 302° |
| 2026-04-21 18:45 | 35.62204 | 63.13585 | 39870 ft | 465 kts | 301° |
| 2026-04-21 18:46 | 35.66094 | 63.07236 | 39862 ft | 465 kts | 301° |
| 2026-04-21 18:46 | 35.69985 | 63.00874 | 39857 ft | 465 kts | 301° |
| 2026-04-21 18:47 | 35.73877 | 62.94506 | 39853 ft | 465 kts | 301° |
| 2026-04-21 18:47 | 35.77738 | 62.88182 | 39858 ft | 465 kts | 301° |
| 2026-04-21 18:48 | 35.81629 | 62.81797 | 39855 ft | 465 kts | 301° |
| 2026-04-21 18:48 | 35.85511 | 62.75413 | 39851 ft | 465 kts | 301° |
| 2026-04-21 18:49 | 35.89395 | 62.69015 | 39852 ft | 465 kts | 301° |
| 2026-04-21 18:49 | 35.92620 | 62.63694 | 39855 ft | 466 kts | 301° |
| 2026-04-21 18:50 | 35.97127 | 62.56244 | 39868 ft | 466 kts | 300° |
| 2026-04-21 18:50 | 36.01000 | 62.49827 | 39862 ft | 466 kts | 300° |
| 2026-04-21 18:51 | 36.04881 | 62.43386 | 39864 ft | 467 kts | 300° |
| 2026-04-21 18:51 | 36.08760 | 62.36937 | 39870 ft | 467 kts | 300° |
| 2026-04-21 18:52 | 36.12640 | 62.30473 | 39876 ft | 468 kts | 300° |
| 2026-04-21 18:52 | 36.16490 | 62.24047 | 39876 ft | 468 kts | 300° |
| 2026-04-21 18:53 | 36.20367 | 62.17564 | 39879 ft | 468 kts | 300° |
| 2026-04-21 18:53 | 36.24240 | 62.11077 | 39878 ft | 468 kts | 300° |
| 2026-04-21 18:54 | 36.28111 | 62.04578 | 39878 ft | 468 kts | 300° |
| 2026-04-21 18:54 | 36.31328 | 61.99170 | 39877 ft | 468 kts | 300° |
| 2026-04-21 18:55 | 36.35193 | 61.92660 | 39884 ft | 468 kts | 300° |
| 2026-04-21 18:55 | 36.39050 | 61.86150 | 39884 ft | 468 kts | 300° |
| 2026-04-21 18:56 | 36.42904 | 61.79635 | 39886 ft | 468 kts | 300° |
| 2026-04-21 18:56 | 36.46728 | 61.73157 | 39886 ft | 468 kts | 300° |
| 2026-04-21 18:57 | 36.50571 | 61.66633 | 39895 ft | 468 kts | 300° |
| 2026-04-21 18:57 | 36.54411 | 61.60103 | 39891 ft | 467 kts | 300° |
| 2026-04-21 18:58 | 36.58242 | 61.53573 | 39883 ft | 467 kts | 299° |
| 2026-04-21 18:58 | 36.62072 | 61.47038 | 39887 ft | 467 kts | 299° |
| 2026-04-21 18:59 | 36.65854 | 61.40474 | 39892 ft | 465 kts | 298° |
| 2026-04-21 18:59 | 36.69586 | 61.33886 | 39894 ft | 465 kts | 298° |
| 2026-04-21 19:00 | 36.73312 | 61.27303 | 39897 ft | 465 kts | 298° |
| 2026-04-21 19:00 | 36.77022 | 61.20752 | 39896 ft | 464 kts | 298° |
| 2026-04-21 19:01 | 36.80745 | 61.14171 | 39903 ft | 464 kts | 298° |
| 2026-04-21 19:01 | 36.84462 | 61.07586 | 39910 ft | 464 kts | 298° |
| 2026-04-21 19:02 | 36.88176 | 61.00992 | 39907 ft | 464 kts | 298° |
| 2026-04-21 19:02 | 36.89305 | 60.98986 | 39912 ft | 464 kts | 298° |
| 2026-04-21 19:03 | 36.92986 | 60.92432 | 39907 ft | 464 kts | 298° |
| 2026-04-21 19:03 | 36.96687 | 60.85835 | 39902 ft | 463 kts | 297° |
| 2026-04-21 19:04 | 37.00558 | 60.79349 | 39907 ft | 466 kts | 300° |
| 2026-04-21 19:04 | 37.04581 | 60.72968 | 39907 ft | 467 kts | 301° |
| 2026-04-21 19:05 | 37.08601 | 60.66591 | 39906 ft | 467 kts | 300° |
| 2026-04-21 19:05 | 37.12607 | 60.60182 | 39898 ft | 466 kts | 300° |
| 2026-04-21 19:06 | 37.16592 | 60.53772 | 39905 ft | 466 kts | 300° |
| 2026-04-21 19:06 | 37.20573 | 60.47353 | 39910 ft | 466 kts | 300° |
| 2026-04-21 19:07 | 37.24560 | 60.40911 | 39909 ft | 467 kts | 300° |
| 2026-04-21 19:07 | 37.28545 | 60.34463 | 39910 ft | 467 kts | 300° |
| 2026-04-21 19:08 | 37.32506 | 60.28042 | 39915 ft | 467 kts | 300° |
| 2026-04-21 19:08 | 37.36488 | 60.21574 | 39913 ft | 468 kts | 300° |
| 2026-04-21 19:09 | 37.40470 | 60.15094 | 39918 ft | 468 kts | 300° |
| 2026-04-21 19:09 | 37.44449 | 60.08604 | 39915 ft | 469 kts | 300° |
| 2026-04-21 19:10 | 37.48436 | 60.02090 | 39913 ft | 469 kts | 300° |
| 2026-04-21 19:10 | 37.52389 | 59.95618 | 39918 ft | 469 kts | 300° |
| 2026-04-21 19:11 | 37.56367 | 59.89094 | 39919 ft | 470 kts | 300° |
| 2026-04-21 19:11 | 37.60348 | 59.82551 | 39920 ft | 470 kts | 300° |
| 2026-04-21 19:12 | 37.64325 | 59.76002 | 39917 ft | 470 kts | 299° |
| 2026-04-21 19:12 | 37.68299 | 59.69444 | 39920 ft | 471 kts | 299° |
| 2026-04-21 19:13 | 37.72278 | 59.62864 | 39923 ft | 471 kts | 299° |
| 2026-04-21 19:13 | 37.76261 | 59.56267 | 39922 ft | 472 kts | 299° |
| 2026-04-21 19:14 | 37.80212 | 59.49707 | 39922 ft | 472 kts | 299° |
| 2026-04-21 19:14 | 37.84192 | 59.43084 | 39922 ft | 473 kts | 299° |
| 2026-04-21 19:15 | 37.88178 | 59.36443 | 39925 ft | 473 kts | 299° |
| 2026-04-21 19:15 | 37.91780 | 59.29551 | 39932 ft | 467 kts | 294° |
| 2026-04-21 19:16 | 37.95148 | 59.22505 | 39933 ft | 467 kts | 293° |
| 2026-04-21 19:16 | 37.98494 | 59.15493 | 39932 ft | 468 kts | 294° |
| 2026-04-21 19:17 | 38.03573 | 59.04916 | 39918 ft | 469 kts | 294° |
| 2026-04-21 19:17 | 38.06971 | 58.97840 | 39926 ft | 469 kts | 294° |
| 2026-04-21 19:18 | 38.10363 | 58.90760 | 39930 ft | 469 kts | 294° |
| 2026-04-21 19:18 | 38.13735 | 58.83704 | 39929 ft | 470 kts | 294° |
| 2026-04-21 19:19 | 38.17125 | 58.76594 | 39928 ft | 471 kts | 294° |
| 2026-04-21 19:19 | 38.20517 | 58.69465 | 39935 ft | 471 kts | 294° |
| 2026-04-21 19:20 | 38.23908 | 58.62320 | 39932 ft | 472 kts | 294° |
| 2026-04-21 19:20 | 38.27298 | 58.55164 | 39937 ft | 472 kts | 294° |
| 2026-04-21 19:21 | 38.30690 | 58.47986 | 39932 ft | 473 kts | 294° |
| 2026-04-21 19:21 | 38.34081 | 58.40794 | 39931 ft | 473 kts | 294° |
| 2026-04-21 19:22 | 38.37468 | 58.33597 | 39934 ft | 474 kts | 294° |
| 2026-04-21 19:22 | 38.40712 | 58.26378 | 39940 ft | 469 kts | 288° |
| 2026-04-21 19:23 | 38.43406 | 58.18822 | 39931 ft | 467 kts | 287° |
| 2026-04-21 19:23 | 38.46044 | 58.11246 | 39930 ft | 468 kts | 287° |
| 2026-04-21 19:24 | 38.48712 | 58.03655 | 39928 ft | 468 kts | 287° |
| 2026-04-21 19:24 | 38.51390 | 57.96069 | 39929 ft | 469 kts | 287° |
| 2026-04-21 19:25 | 38.54053 | 57.88514 | 39932 ft | 469 kts | 287° |
| 2026-04-21 19:25 | 38.56724 | 57.80912 | 39933 ft | 469 kts | 287° |
| 2026-04-21 19:26 | 38.59393 | 57.73293 | 39933 ft | 470 kts | 287° |
| 2026-04-21 19:26 | 38.62139 | 57.65690 | 39942 ft | 473 kts | 291° |
| 2026-04-21 19:27 | 38.65552 | 57.58408 | 39934 ft | 478 kts | 295° |
| 2026-04-21 19:27 | 38.69082 | 57.51176 | 39937 ft | 479 kts | 295° |
| 2026-04-21 19:28 | 38.72588 | 57.43933 | 39935 ft | 479 kts | 295° |
| 2026-04-21 19:28 | 38.76061 | 57.36684 | 39928 ft | 479 kts | 294° |
| 2026-04-21 19:29 | 38.79539 | 57.29387 | 39934 ft | 479 kts | 294° |
| 2026-04-21 19:29 | 38.83011 | 57.22085 | 39932 ft | 480 kts | 294° |
| 2026-04-21 19:30 | 38.86484 | 57.14768 | 39936 ft | 480 kts | 294° |
| 2026-04-21 19:30 | 38.89959 | 57.07431 | 39938 ft | 480 kts | 294° |
| 2026-04-21 19:31 | 38.93405 | 57.00139 | 39934 ft | 481 kts | 294° |
| 2026-04-21 19:31 | 38.96877 | 56.92774 | 39934 ft | 481 kts | 294° |
| 2026-04-21 19:32 | 38.98609 | 56.89095 | 39936 ft | 481 kts | 294° |
| 2026-04-21 19:32 | 39.01275 | 56.83421 | 39941 ft | 481 kts | 294° |
| 2026-04-21 19:33 | 39.04733 | 56.76049 | 39937 ft | 482 kts | 294° |
| 2026-04-21 19:33 | 39.08191 | 56.68658 | 39938 ft | 482 kts | 294° |
| 2026-04-21 19:34 | 39.11626 | 56.61299 | 39945 ft | 482 kts | 294° |
| 2026-04-21 19:34 | 39.15086 | 56.53871 | 39941 ft | 482 kts | 294° |
| 2026-04-21 19:35 | 39.20260 | 56.42727 | 39926 ft | 483 kts | 294° |
| 2026-04-21 19:36 | 39.23705 | 56.35286 | 39933 ft | 483 kts | 294° |
| 2026-04-21 19:36 | 39.27145 | 56.27839 | 39938 ft | 483 kts | 294° |
| 2026-04-21 19:37 | 39.30561 | 56.20425 | 39939 ft | 483 kts | 294° |
| 2026-04-21 19:37 | 39.33995 | 56.12955 | 39934 ft | 484 kts | 294° |
| 2026-04-21 19:38 | 39.37430 | 56.05465 | 39934 ft | 484 kts | 294° |
| 2026-04-21 19:38 | 39.40281 | 55.99235 | 39939 ft | 484 kts | 294° |
| 2026-04-21 19:39 | 39.44285 | 55.90464 | 39936 ft | 485 kts | 294° |
| 2026-04-21 19:39 | 39.47706 | 55.82951 | 39932 ft | 485 kts | 294° |
| 2026-04-21 19:40 | 39.51148 | 55.75432 | 39933 ft | 485 kts | 294° |
| 2026-04-21 19:40 | 39.54635 | 55.67939 | 39932 ft | 486 kts | 294° |
| 2026-04-21 19:41 | 39.57531 | 55.61703 | 39929 ft | 486 kts | 294° |
| 2026-04-21 19:41 | 39.61005 | 55.54184 | 39928 ft | 486 kts | 294° |
| 2026-04-21 19:42 | 39.64470 | 55.46658 | 39930 ft | 486 kts | 294° |
| 2026-04-21 19:42 | 39.67905 | 55.39104 | 39929 ft | 483 kts | 291° |
| 2026-04-21 19:43 | 39.70547 | 55.31181 | 39930 ft | 474 kts | 281° |
| 2026-04-21 19:43 | 39.72330 | 55.22978 | 39932 ft | 471 kts | 279° |
| 2026-04-21 19:44 | 39.74055 | 55.14764 | 39923 ft | 472 kts | 279° |
| 2026-04-21 19:44 | 39.75810 | 55.06546 | 39934 ft | 472 kts | 279° |
| 2026-04-21 19:45 | 39.77577 | 54.98328 | 39929 ft | 472 kts | 279° |
| 2026-04-21 19:45 | 39.79330 | 54.90148 | 39922 ft | 472 kts | 279° |
| 2026-04-21 19:46 | 39.81090 | 54.81900 | 39932 ft | 472 kts | 279° |
| 2026-04-21 19:46 | 39.82845 | 54.73653 | 39931 ft | 473 kts | 279° |
| 2026-04-21 19:47 | 39.84616 | 54.65414 | 39931 ft | 473 kts | 279° |
| 2026-04-21 19:47 | 39.86378 | 54.57206 | 39935 ft | 473 kts | 279° |
| 2026-04-21 19:48 | 39.88140 | 54.48951 | 39937 ft | 473 kts | 279° |
| 2026-04-21 19:48 | 39.89892 | 54.40681 | 39936 ft | 473 kts | 279° |
| 2026-04-21 19:49 | 39.91618 | 54.32400 | 39944 ft | 474 kts | 279° |
| 2026-04-21 19:49 | 39.93336 | 54.24115 | 39949 ft | 474 kts | 279° |
| 2026-04-21 19:50 | 39.95053 | 54.15805 | 39938 ft | 475 kts | 279° |
| 2026-04-21 19:50 | 39.96768 | 54.07488 | 39941 ft | 475 kts | 279° |
| 2026-04-21 19:51 | 39.98481 | 53.99147 | 39935 ft | 476 kts | 279° |
| 2026-04-21 19:51 | 40.00179 | 53.90850 | 39942 ft | 476 kts | 279° |
| 2026-04-21 19:52 | 40.01881 | 53.82491 | 39934 ft | 476 kts | 279° |
| 2026-04-21 19:52 | 40.03578 | 53.74126 | 39931 ft | 477 kts | 279° |
| 2026-04-21 19:53 | 40.05270 | 53.65755 | 39927 ft | 478 kts | 279° |
| 2026-04-21 19:53 | 40.06958 | 53.57369 | 39923 ft | 478 kts | 279° |
| 2026-04-21 19:54 | 40.08643 | 53.48963 | 39917 ft | 478 kts | 279° |
| 2026-04-21 19:54 | 40.10321 | 53.40556 | 39921 ft | 479 kts | 280° |
| 2026-04-21 19:55 | 40.11995 | 53.32134 | 39917 ft | 479 kts | 280° |
| 2026-04-21 19:55 | 40.13665 | 53.23701 | 39920 ft | 479 kts | 280° |
| 2026-04-21 19:56 | 40.15321 | 53.15296 | 39919 ft | 480 kts | 280° |
| 2026-04-21 19:56 | 40.16980 | 53.06850 | 39918 ft | 480 kts | 280° |
| 2026-04-21 19:57 | 40.18636 | 52.98379 | 39915 ft | 481 kts | 280° |
| 2026-04-21 19:57 | 40.20287 | 52.89898 | 39918 ft | 481 kts | 280° |
| 2026-04-21 19:58 | 40.21933 | 52.81410 | 39916 ft | 481 kts | 280° |
| 2026-04-21 19:58 | 40.23571 | 52.72921 | 39918 ft | 481 kts | 279° |
| 2026-04-21 19:59 | 40.25205 | 52.64425 | 39926 ft | 481 kts | 279° |
| 2026-04-21 19:59 | 40.26833 | 52.55926 | 39935 ft | 481 kts | 279° |
| 2026-04-21 20:00 | 40.28454 | 52.47482 | 39939 ft | 481 kts | 280° |
| 2026-04-21 20:00 | 40.30084 | 52.38974 | 39939 ft | 481 kts | 279° |
| 2026-04-21 20:01 | 40.31704 | 52.30469 | 39946 ft | 481 kts | 279° |
| 2026-04-21 20:01 | 40.33318 | 52.21958 | 39952 ft | 481 kts | 279° |
| 2026-04-21 20:02 | 40.34928 | 52.13432 | 39951 ft | 481 kts | 279° |
| 2026-04-21 20:02 | 40.35434 | 52.10742 | 39956 ft | 481 kts | 279° |
| 2026-04-21 20:03 | 40.37034 | 52.02215 | 39961 ft | 482 kts | 279° |
| 2026-04-21 20:03 | 40.38628 | 51.93686 | 39957 ft | 482 kts | 279° |
| 2026-04-21 20:04 | 40.40217 | 51.85148 | 39968 ft | 482 kts | 279° |
| 2026-04-21 20:04 | 40.41790 | 51.76657 | 39969 ft | 482 kts | 279° |
| 2026-04-21 20:05 | 40.43366 | 51.68108 | 39974 ft | 482 kts | 279° |
| 2026-04-21 20:05 | 40.44939 | 51.59542 | 39977 ft | 482 kts | 279° |
| 2026-04-21 20:06 | 40.46505 | 51.50977 | 39977 ft | 482 kts | 279° |
| 2026-04-21 20:06 | 40.48165 | 51.42433 | 39979 ft | 483 kts | 281° |
| 2026-04-21 20:07 | 40.49933 | 51.33900 | 39970 ft | 483 kts | 281° |
| 2026-04-21 20:07 | 40.51687 | 51.25377 | 39973 ft | 483 kts | 281° |
| 2026-04-21 20:08 | 40.53418 | 51.16832 | 39977 ft | 483 kts | 281° |
| 2026-04-21 20:08 | 40.55127 | 51.08321 | 39976 ft | 484 kts | 281° |
| 2026-04-21 20:09 | 40.56838 | 50.99767 | 39979 ft | 484 kts | 281° |
| 2026-04-21 20:09 | 40.58544 | 50.91206 | 39980 ft | 484 kts | 281° |
| 2026-04-21 20:10 | 40.60243 | 50.82642 | 39978 ft | 484 kts | 281° |
| 2026-04-21 20:10 | 40.61940 | 50.74059 | 39987 ft | 484 kts | 281° |
| 2026-04-21 20:11 | 40.63627 | 50.65484 | 40020 ft | 483 kts | 280° |
| 2026-04-21 20:11 | 40.65305 | 50.56922 | 40081 ft | 482 kts | 280° |
| 2026-04-21 20:12 | 40.66965 | 50.48417 | 40103 ft | 482 kts | 280° |
| 2026-04-21 20:12 | 40.68349 | 50.41293 | 40131 ft | 482 kts | 280° |
| 2026-04-21 20:13 | 40.70283 | 50.31275 | 40155 ft | 482 kts | 280° |
| 2026-04-21 20:13 | 40.71930 | 50.22699 | 40181 ft | 482 kts | 280° |
| 2026-04-21 20:14 | 40.73570 | 50.14126 | 40202 ft | 482 kts | 280° |
| 2026-04-21 20:14 | 40.75204 | 50.05550 | 40233 ft | 482 kts | 280° |
| 2026-04-21 20:15 | 40.76831 | 49.96969 | 40258 ft | 482 kts | 280° |
| 2026-04-21 20:15 | 40.78453 | 49.88380 | 40278 ft | 482 kts | 280° |
| 2026-04-21 20:16 | 40.80060 | 49.79833 | 40310 ft | 482 kts | 280° |
| 2026-04-21 20:16 | 40.81669 | 49.71236 | 40336 ft | 482 kts | 280° |
| 2026-04-21 20:17 | 40.83271 | 49.62640 | 40358 ft | 482 kts | 280° |
| 2026-04-21 20:17 | 40.84866 | 49.54041 | 40382 ft | 482 kts | 280° |
| 2026-04-21 20:18 | 40.86186 | 49.46892 | 40408 ft | 482 kts | 280° |
| 2026-04-21 20:18 | 40.88037 | 49.36834 | 40422 ft | 482 kts | 280° |
| 2026-04-21 20:19 | 40.89565 | 49.28261 | 40442 ft | 481 kts | 279° |
| 2026-04-21 20:19 | 40.91018 | 49.19628 | 40459 ft | 481 kts | 279° |
| 2026-04-21 20:20 | 40.92461 | 49.10985 | 40496 ft | 481 kts | 279° |
| 2026-04-21 20:20 | 40.93900 | 49.02395 | 40520 ft | 481 kts | 279° |
| 2026-04-21 20:21 | 40.95346 | 48.93757 | 40545 ft | 481 kts | 279° |
| 2026-04-21 20:21 | 40.96787 | 48.85110 | 40580 ft | 481 kts | 279° |
| 2026-04-21 20:22 | 40.98221 | 48.76463 | 40599 ft | 481 kts | 279° |
| 2026-04-21 20:22 | 41.00358 | 48.63489 | 40636 ft | 480 kts | 279° |
| 2026-04-21 20:23 | 41.01772 | 48.54844 | 40667 ft | 480 kts | 279° |
| 2026-04-21 20:23 | 41.03171 | 48.46251 | 40690 ft | 480 kts | 279° |
| 2026-04-21 20:24 | 41.04570 | 48.37629 | 40761 ft | 478 kts | 279° |
| 2026-04-21 20:24 | 41.05957 | 48.29028 | 40825 ft | 475 kts | 279° |
| 2026-04-21 20:25 | 41.07329 | 48.20468 | 40865 ft | 474 kts | 279° |
| 2026-04-21 20:25 | 41.08464 | 48.13356 | 40873 ft | 473 kts | 279° |
| 2026-04-21 20:26 | 41.09823 | 48.04812 | 40902 ft | 474 kts | 279° |
| 2026-04-21 20:26 | 41.11396 | 47.94869 | 40946 ft | 474 kts | 279° |
| 2026-04-21 20:27 | 41.12528 | 47.87696 | 40996 ft | 474 kts | 279° |
| 2026-04-21 20:27 | 41.13868 | 47.79181 | 41029 ft | 474 kts | 279° |
| 2026-04-21 20:28 | 41.15210 | 47.70605 | 41132 ft | 473 kts | 279° |
| 2026-04-21 20:28 | 41.16542 | 47.62051 | 41163 ft | 473 kts | 278° |
| 2026-04-21 20:29 | 41.17869 | 47.53475 | 41217 ft | 473 kts | 278° |
| 2026-04-21 20:29 | 41.19189 | 47.44909 | 41261 ft | 474 kts | 278° |
| 2026-04-21 20:30 | 41.20497 | 47.36374 | 41305 ft | 474 kts | 278° |
| 2026-04-21 20:30 | 41.21803 | 47.27794 | 41367 ft | 474 kts | 278° |
| 2026-04-21 20:31 | 41.23107 | 47.19202 | 41407 ft | 474 kts | 278° |
| 2026-04-21 20:31 | 41.24404 | 47.10611 | 41437 ft | 474 kts | 278° |
| 2026-04-21 20:32 | 41.25269 | 47.04850 | 41455 ft | 474 kts | 278° |
| 2026-04-21 20:32 | 41.26100 | 46.99288 | 41477 ft | 474 kts | 278° |
| 2026-04-21 20:33 | 41.27381 | 46.90689 | 41516 ft | 474 kts | 278° |
| 2026-04-21 20:33 | 41.28654 | 46.82102 | 41547 ft | 473 kts | 278° |
| 2026-04-21 20:34 | 41.29917 | 46.73522 | 41578 ft | 472 kts | 278° |
| 2026-04-21 20:34 | 41.31131 | 46.64925 | 41600 ft | 472 kts | 278° |
| 2026-04-21 20:35 | 41.32309 | 46.56413 | 41626 ft | 471 kts | 278° |
| 2026-04-21 20:35 | 41.33492 | 46.47843 | 41651 ft | 471 kts | 278° |
| 2026-04-21 20:36 | 41.34672 | 46.39280 | 41669 ft | 470 kts | 278° |
| 2026-04-21 20:36 | 41.35847 | 46.30718 | 41688 ft | 470 kts | 278° |
| 2026-04-21 20:37 | 41.37014 | 46.22163 | 41710 ft | 469 kts | 278° |
| 2026-04-21 20:37 | 41.38175 | 46.13603 | 41739 ft | 469 kts | 278° |
| 2026-04-21 20:38 | 41.39321 | 46.05105 | 41755 ft | 469 kts | 277° |
| 2026-04-21 20:38 | 41.40466 | 45.96556 | 41782 ft | 468 kts | 277° |
| 2026-04-21 20:39 | 41.41604 | 45.88016 | 41805 ft | 468 kts | 277° |
| 2026-04-21 20:39 | 41.42736 | 45.79470 | 41820 ft | 468 kts | 277° |
| 2026-04-21 20:40 | 41.43825 | 45.71201 | 41842 ft | 468 kts | 277° |
| 2026-04-21 20:40 | 41.44943 | 45.62660 | 41853 ft | 468 kts | 277° |
| 2026-04-21 20:41 | 41.46053 | 45.54126 | 41878 ft | 467 kts | 277° |
| 2026-04-21 20:41 | 41.47161 | 45.45567 | 41908 ft | 467 kts | 277° |
| 2026-04-21 20:42 | 41.48251 | 45.37072 | 41932 ft | 467 kts | 276° |
| 2026-04-21 20:42 | 41.49075 | 45.28496 | 41956 ft | 466 kts | 274° |
| 2026-04-21 20:43 | 41.49783 | 45.19904 | 41976 ft | 466 kts | 274° |
| 2026-04-21 20:43 | 41.50491 | 45.11311 | 41996 ft | 466 kts | 274° |
| 2026-04-21 20:44 | 41.51208 | 45.02725 | 42020 ft | 466 kts | 274° |
| 2026-04-21 20:44 | 41.51929 | 44.94129 | 42046 ft | 465 kts | 274° |
| 2026-04-21 20:45 | 41.52642 | 44.85551 | 42082 ft | 465 kts | 274° |
| 2026-04-21 20:45 | 41.53344 | 44.77030 | 42101 ft | 465 kts | 274° |
| 2026-04-21 20:46 | 41.54044 | 44.68455 | 42127 ft | 464 kts | 274° |
| 2026-04-21 20:46 | 41.54736 | 44.59886 | 42150 ft | 464 kts | 274° |
| 2026-04-21 20:47 | 41.55421 | 44.51319 | 42178 ft | 463 kts | 274° |
| 2026-04-21 20:47 | 41.56099 | 44.42759 | 42211 ft | 463 kts | 274° |
| 2026-04-21 20:48 | 41.56770 | 44.34205 | 42228 ft | 463 kts | 274° |
| 2026-04-21 20:48 | 41.57431 | 44.25701 | 42254 ft | 463 kts | 274° |
| 2026-04-21 20:49 | 41.58090 | 44.17146 | 42277 ft | 462 kts | 274° |
| 2026-04-21 20:49 | 41.58740 | 44.08613 | 42298 ft | 462 kts | 274° |
| 2026-04-21 20:50 | 41.59386 | 44.00063 | 42316 ft | 461 kts | 274° |
| 2026-04-21 20:50 | 41.60023 | 43.91540 | 42338 ft | 461 kts | 274° |
| 2026-04-21 20:51 | 41.60653 | 43.83016 | 42351 ft | 461 kts | 274° |
| 2026-04-21 20:51 | 41.61273 | 43.74549 | 42313 ft | 461 kts | 274° |
| 2026-04-21 20:52 | 41.61890 | 43.66024 | 42364 ft | 461 kts | 274° |
| 2026-04-21 20:52 | 41.62502 | 43.57485 | 42404 ft | 461 kts | 274° |
| 2026-04-21 20:53 | 41.63107 | 43.48955 | 42421 ft | 461 kts | 274° |
| 2026-04-21 20:53 | 41.63706 | 43.40431 | 42452 ft | 460 kts | 274° |
| 2026-04-21 20:54 | 41.64298 | 43.31911 | 42471 ft | 460 kts | 274° |
| 2026-04-21 20:54 | 41.64884 | 43.23382 | 42514 ft | 460 kts | 274° |
| 2026-04-21 20:55 | 41.65460 | 43.14906 | 42507 ft | 461 kts | 273° |
| 2026-04-21 20:55 | 41.66034 | 43.06362 | 42527 ft | 460 kts | 273° |
| 2026-04-21 20:56 | 41.66600 | 42.97830 | 42551 ft | 460 kts | 273° |
| 2026-04-21 20:56 | 41.67160 | 42.89312 | 42538 ft | 460 kts | 273° |
| 2026-04-21 20:57 | 41.67710 | 42.80850 | 42571 ft | 459 kts | 273° |
| 2026-04-21 20:57 | 41.68257 | 42.72332 | 42587 ft | 459 kts | 273° |
| 2026-04-21 20:58 | 41.68797 | 42.63809 | 42579 ft | 460 kts | 273° |
| 2026-04-21 20:58 | 41.69331 | 42.55288 | 42601 ft | 459 kts | 273° |
| 2026-04-21 20:59 | 41.69860 | 42.46760 | 42575 ft | 459 kts | 273° |
| 2026-04-21 20:59 | 41.70382 | 42.38238 | 42610 ft | 459 kts | 273° |
| 2026-04-21 21:00 | 41.70898 | 42.29697 | 42565 ft | 460 kts | 273° |
| 2026-04-21 21:00 | 41.71405 | 42.21224 | 42585 ft | 459 kts | 273° |
| 2026-04-21 21:01 | 41.71672 | 42.12679 | 42577 ft | 458 kts | 264° |
| 2026-04-21 21:01 | 41.70702 | 42.04263 | 42525 ft | 458 kts | 255° |
| 2026-04-21 21:02 | 41.69767 | 42.00187 | 42481 ft | 458 kts | 251° |
| 2026-04-21 21:02 | 41.68092 | 41.93968 | 42529 ft | 458 kts | 250° |
| 2026-04-21 21:03 | 41.65897 | 41.85956 | 42525 ft | 458 kts | 250° |
| 2026-04-21 21:03 | 41.63750 | 41.77976 | 42489 ft | 459 kts | 250° |
| 2026-04-21 21:04 | 41.61604 | 41.69936 | 42515 ft | 459 kts | 250° |
| 2026-04-21 21:04 | 41.59456 | 41.61911 | 42529 ft | 458 kts | 250° |
| 2026-04-21 21:05 | 41.57302 | 41.53897 | 42543 ft | 458 kts | 250° |
| 2026-04-21 21:05 | 41.55660 | 41.45750 | 42514 ft | 458 kts | 262° |
| 2026-04-21 21:06 | 41.55260 | 41.37255 | 42512 ft | 459 kts | 272° |
| 2026-04-21 21:06 | 41.55742 | 41.28738 | 42500 ft | 460 kts | 274° |
| 2026-04-21 21:07 | 41.56294 | 41.20225 | 42513 ft | 460 kts | 274° |
| 2026-04-21 21:07 | 41.56801 | 41.11713 | 42527 ft | 460 kts | 273° |
| 2026-04-21 21:08 | 41.57276 | 41.03190 | 42546 ft | 460 kts | 273° |
| 2026-04-21 21:08 | 41.57741 | 40.94668 | 42550 ft | 460 kts | 273° |
| 2026-04-21 21:09 | 41.58200 | 40.86153 | 42575 ft | 460 kts | 273° |
| 2026-04-21 21:09 | 41.58654 | 40.77635 | 42594 ft | 460 kts | 273° |
| 2026-04-21 21:10 | 41.59104 | 40.69100 | 42613 ft | 459 kts | 273° |
| 2026-04-21 21:10 | 41.59543 | 40.60631 | 42634 ft | 459 kts | 273° |
| 2026-04-21 21:11 | 41.59973 | 40.52115 | 42630 ft | 459 kts | 273° |
| 2026-04-21 21:11 | 41.60397 | 40.43593 | 42646 ft | 459 kts | 273° |
| 2026-04-21 21:12 | 41.60814 | 40.35086 | 42674 ft | 459 kts | 273° |
| 2026-04-21 21:12 | 41.61223 | 40.26633 | 42689 ft | 458 kts | 273° |
| 2026-04-21 21:13 | 41.61563 | 40.19509 | 42678 ft | 458 kts | 272° |
| 2026-04-21 21:13 | 41.62026 | 40.09631 | 42701 ft | 458 kts | 272° |
| 2026-04-21 21:14 | 41.62354 | 40.02540 | 42695 ft | 458 kts | 272° |
| 2026-04-21 21:14 | 41.62741 | 39.94039 | 42699 ft | 458 kts | 272° |
| 2026-04-21 21:15 | 41.63122 | 39.85538 | 42696 ft | 458 kts | 272° |
| 2026-04-21 21:15 | 41.63497 | 39.77035 | 42711 ft | 458 kts | 272° |
| 2026-04-21 21:16 | 41.63862 | 39.68592 | 42708 ft | 458 kts | 272° |
| 2026-04-21 21:16 | 41.64225 | 39.60098 | 42732 ft | 457 kts | 272° |
| 2026-04-21 21:17 | 41.64582 | 39.51609 | 42741 ft | 457 kts | 272° |
| 2026-04-21 21:17 | 41.64937 | 39.43115 | 42762 ft | 457 kts | 272° |
| 2026-04-21 21:18 | 41.65285 | 39.34634 | 42766 ft | 456 kts | 272° |
| 2026-04-21 21:18 | 41.65627 | 39.26161 | 42783 ft | 456 kts | 272° |
| 2026-04-21 21:19 | 41.65961 | 39.17725 | 42805 ft | 456 kts | 272° |
| 2026-04-21 21:19 | 41.66288 | 39.09293 | 42934 ft | 452 kts | 272° |
| 2026-04-21 21:20 | 41.66607 | 39.00909 | 42995 ft | 451 kts | 272° |
| 2026-04-21 21:20 | 41.66918 | 38.92587 | 43005 ft | 450 kts | 272° |
| 2026-04-21 21:21 | 41.67225 | 38.84216 | 43002 ft | 450 kts | 272° |
| 2026-04-21 21:21 | 41.67525 | 38.75842 | 43003 ft | 450 kts | 272° |
| 2026-04-21 21:22 | 41.67820 | 38.67469 | 43000 ft | 450 kts | 272° |
| 2026-04-21 21:22 | 41.68108 | 38.59113 | 43004 ft | 450 kts | 272° |
| 2026-04-21 21:23 | 41.68390 | 38.50751 | 43001 ft | 450 kts | 272° |
| 2026-04-21 21:23 | 41.68664 | 38.42448 | 43004 ft | 449 kts | 271° |
| 2026-04-21 21:24 | 41.68933 | 38.34087 | 43005 ft | 449 kts | 271° |
| 2026-04-21 21:24 | 41.69197 | 38.25730 | 43001 ft | 449 kts | 271° |
| 2026-04-21 21:25 | 41.69455 | 38.17372 | 43002 ft | 449 kts | 271° |
| 2026-04-21 21:25 | 41.69706 | 38.09021 | 43004 ft | 449 kts | 271° |
| 2026-04-21 21:26 | 41.69950 | 38.00719 | 43005 ft | 449 kts | 271° |
| 2026-04-21 21:26 | 41.70189 | 37.92363 | 43003 ft | 449 kts | 271° |
| 2026-04-21 21:27 | 41.70423 | 37.83999 | 43003 ft | 449 kts | 271° |
| 2026-04-21 21:27 | 41.70650 | 37.75638 | 43003 ft | 450 kts | 271° |
| 2026-04-21 21:28 | 41.70873 | 37.67272 | 42999 ft | 450 kts | 271° |
| 2026-04-21 21:29 | 41.71186 | 37.54715 | 43002 ft | 450 kts | 271° |
| 2026-04-21 21:29 | 41.71385 | 37.46384 | 43003 ft | 450 kts | 271° |
| 2026-04-21 21:30 | 41.71580 | 37.37996 | 43004 ft | 450 kts | 271° |
| 2026-04-21 21:30 | 41.71769 | 37.29609 | 43003 ft | 451 kts | 271° |
| 2026-04-21 21:31 | 41.71952 | 37.21218 | 43003 ft | 451 kts | 271° |
| 2026-04-21 21:31 | 41.72129 | 37.12827 | 43003 ft | 451 kts | 271° |
| 2026-04-21 21:32 | 41.72300 | 37.04425 | 43004 ft | 451 kts | 271° |
| 2026-04-21 21:32 | 41.72344 | 37.02231 | 43002 ft | 451 kts | 271° |
| 2026-04-21 21:33 | 41.72507 | 36.93822 | 43001 ft | 452 kts | 271° |
| 2026-04-21 21:33 | 41.72665 | 36.85415 | 43003 ft | 452 kts | 271° |
| 2026-04-21 21:34 | 41.72815 | 36.77047 | 43005 ft | 452 kts | 271° |
| 2026-04-21 21:34 | 41.72961 | 36.68624 | 43000 ft | 452 kts | 271° |
| 2026-04-21 21:35 | 41.73100 | 36.60203 | 43000 ft | 452 kts | 271° |
| 2026-04-21 21:35 | 41.73234 | 36.51758 | 43000 ft | 453 kts | 271° |
| 2026-04-21 21:36 | 41.73361 | 36.43335 | 43000 ft | 453 kts | 271° |
| 2026-04-21 21:36 | 41.73481 | 36.34902 | 43000 ft | 453 kts | 271° |
| 2026-04-21 21:37 | 41.73596 | 36.26464 | 42998 ft | 453 kts | 271° |
| 2026-04-21 21:37 | 41.73704 | 36.18081 | 42999 ft | 453 kts | 270° |
| 2026-04-21 21:38 | 41.73807 | 36.09640 | 42994 ft | 453 kts | 270° |
| 2026-04-21 21:38 | 41.73903 | 36.01189 | 42997 ft | 453 kts | 270° |
| 2026-04-21 21:39 | 41.73994 | 35.92741 | 42995 ft | 454 kts | 270° |
| 2026-04-21 21:39 | 41.74078 | 35.84289 | 42996 ft | 454 kts | 270° |
| 2026-04-21 21:40 | 41.74156 | 35.75828 | 42994 ft | 454 kts | 270° |
| 2026-04-21 21:40 | 41.74227 | 35.67434 | 42996 ft | 454 kts | 270° |
| 2026-04-21 21:41 | 41.74292 | 35.58974 | 42991 ft | 454 kts | 270° |
| 2026-04-21 21:41 | 41.74352 | 35.50515 | 42996 ft | 454 kts | 270° |
| 2026-04-21 21:42 | 41.74405 | 35.42068 | 42990 ft | 454 kts | 270° |
| 2026-04-21 21:42 | 41.74452 | 35.33608 | 42996 ft | 454 kts | 270° |
| 2026-04-21 21:43 | 41.74493 | 35.25157 | 42991 ft | 454 kts | 270° |
| 2026-04-21 21:43 | 41.74528 | 35.16699 | 42995 ft | 453 kts | 270° |
| 2026-04-21 21:44 | 41.74556 | 35.08250 | 42989 ft | 453 kts | 270° |
| 2026-04-21 21:44 | 41.74578 | 34.99866 | 42985 ft | 453 kts | 270° |
| 2026-04-21 21:45 | 41.74594 | 34.91426 | 42986 ft | 453 kts | 270° |
| 2026-04-21 21:45 | 41.74604 | 34.82990 | 42994 ft | 453 kts | 270° |
| 2026-04-21 21:46 | 41.74609 | 34.74564 | 42989 ft | 453 kts | 270° |
| 2026-04-21 21:46 | 41.74609 | 34.66132 | 42993 ft | 452 kts | 271° |
| 2026-04-21 21:47 | 41.75249 | 34.57766 | 42988 ft | 452 kts | 279° |
| 2026-04-21 21:47 | 41.76825 | 34.49618 | 42980 ft | 453 kts | 286° |
| 2026-04-21 21:48 | 41.78745 | 34.41578 | 42995 ft | 452 kts | 286° |
| 2026-04-21 21:48 | 41.80655 | 34.33545 | 42993 ft | 452 kts | 286° |
| 2026-04-21 21:49 | 41.82535 | 34.25496 | 43009 ft | 453 kts | 286° |
| 2026-04-21 21:49 | 41.84392 | 34.17471 | 43002 ft | 453 kts | 286° |
| 2026-04-21 21:50 | 41.86254 | 34.09385 | 42999 ft | 453 kts | 286° |
| 2026-04-21 21:50 | 41.88109 | 34.01309 | 43004 ft | 453 kts | 286° |
| 2026-04-21 21:51 | 41.89962 | 33.93212 | 43012 ft | 453 kts | 285° |
| 2026-04-21 21:51 | 41.91804 | 33.85133 | 42999 ft | 453 kts | 285° |
| 2026-04-21 21:52 | 41.93629 | 33.77103 | 43017 ft | 452 kts | 285° |
| 2026-04-21 21:52 | 41.95455 | 33.68995 | 43009 ft | 452 kts | 284° |
| 2026-04-21 21:53 | 41.97059 | 33.60844 | 43028 ft | 451 kts | 283° |
| 2026-04-21 21:53 | 41.98587 | 33.52665 | 43029 ft | 451 kts | 283° |
| 2026-04-21 21:54 | 42.00135 | 33.44492 | 43016 ft | 451 kts | 283° |
| 2026-04-21 21:54 | 42.01697 | 33.36318 | 43022 ft | 450 kts | 283° |
| 2026-04-21 21:55 | 42.03242 | 33.28211 | 43024 ft | 450 kts | 283° |
| 2026-04-21 21:55 | 42.04793 | 33.20038 | 43026 ft | 449 kts | 283° |
| 2026-04-21 21:56 | 42.06332 | 33.11890 | 43029 ft | 449 kts | 283° |
| 2026-04-21 21:56 | 42.07897 | 33.03752 | 43031 ft | 449 kts | 284° |
| 2026-04-21 21:57 | 42.09572 | 32.95662 | 43031 ft | 449 kts | 284° |
| 2026-04-21 21:57 | 42.11249 | 32.87566 | 43036 ft | 449 kts | 284° |
| 2026-04-21 21:58 | 42.12906 | 32.79455 | 43034 ft | 449 kts | 284° |
| 2026-04-21 21:58 | 42.14274 | 32.72714 | 43038 ft | 449 kts | 284° |
| 2026-04-21 21:59 | 42.16184 | 32.63268 | 43034 ft | 449 kts | 284° |
| 2026-04-21 21:59 | 42.17554 | 32.56460 | 43039 ft | 449 kts | 284° |
| 2026-04-21 22:00 | 42.19181 | 32.48329 | 43037 ft | 449 kts | 283° |
| 2026-04-21 22:00 | 42.20792 | 32.40245 | 43032 ft | 449 kts | 283° |
| 2026-04-21 22:01 | 42.22410 | 32.32093 | 43041 ft | 449 kts | 283° |
| 2026-04-21 22:01 | 42.24023 | 32.23939 | 43043 ft | 450 kts | 283° |
| 2026-04-21 22:02 | 42.25633 | 32.15780 | 43039 ft | 450 kts | 284° |
| 2026-04-21 22:02 | 42.26067 | 32.13585 | 43040 ft | 450 kts | 284° |
| 2026-04-21 22:03 | 42.27670 | 32.05416 | 43042 ft | 450 kts | 283° |
| 2026-04-21 22:03 | 42.29265 | 31.97226 | 43043 ft | 450 kts | 283° |
| 2026-04-21 22:04 | 42.30843 | 31.89086 | 43043 ft | 451 kts | 283° |
| 2026-04-21 22:04 | 42.32425 | 31.80895 | 43044 ft | 451 kts | 283° |
| 2026-04-21 22:05 | 42.34005 | 31.72686 | 43044 ft | 451 kts | 283° |
| 2026-04-21 22:05 | 42.35578 | 31.64480 | 43044 ft | 451 kts | 283° |
| 2026-04-21 22:06 | 42.37149 | 31.56246 | 43043 ft | 451 kts | 283° |
| 2026-04-21 22:06 | 42.38710 | 31.48028 | 43046 ft | 451 kts | 283° |
| 2026-04-21 22:07 | 42.40257 | 31.39851 | 43047 ft | 451 kts | 283° |
| 2026-04-21 22:07 | 42.41809 | 31.31613 | 43048 ft | 451 kts | 283° |
| 2026-04-21 22:08 | 42.43354 | 31.23377 | 43046 ft | 451 kts | 283° |
| 2026-04-21 22:08 | 42.44895 | 31.15129 | 43049 ft | 451 kts | 283° |
| 2026-04-21 22:09 | 42.46433 | 31.06866 | 43049 ft | 451 kts | 283° |
| 2026-04-21 22:09 | 42.47956 | 30.98672 | 43050 ft | 451 kts | 283° |
| 2026-04-21 22:10 | 42.49484 | 30.90412 | 43050 ft | 451 kts | 283° |
| 2026-04-21 22:10 | 42.51006 | 30.82151 | 43046 ft | 451 kts | 283° |
| 2026-04-21 22:11 | 42.52523 | 30.73881 | 43054 ft | 451 kts | 283° |
| 2026-04-21 22:11 | 42.54021 | 30.65672 | 43051 ft | 451 kts | 283° |
| 2026-04-21 22:12 | 42.55522 | 30.57419 | 43050 ft | 451 kts | 283° |
| 2026-04-21 22:12 | 42.57021 | 30.49134 | 43054 ft | 451 kts | 283° |
| 2026-04-21 22:13 | 42.58512 | 30.40861 | 43056 ft | 451 kts | 283° |
| 2026-04-21 22:13 | 42.60026 | 30.32593 | 43055 ft | 451 kts | 286° |
| 2026-04-21 22:14 | 42.62499 | 30.24738 | 43063 ft | 454 kts | 296° |
| 2026-04-21 22:14 | 42.65966 | 30.17551 | 43057 ft | 457 kts | 304° |
| 2026-04-21 22:15 | 42.69874 | 30.10731 | 43061 ft | 457 kts | 305° |
| 2026-04-21 22:15 | 42.73801 | 30.03925 | 43066 ft | 458 kts | 305° |
| 2026-04-21 22:16 | 42.77699 | 29.97078 | 43062 ft | 458 kts | 304° |
| 2026-04-21 22:16 | 42.81555 | 29.90237 | 43063 ft | 458 kts | 304° |
| 2026-04-21 22:17 | 42.85423 | 29.83346 | 43057 ft | 458 kts | 304° |
| 2026-04-21 22:17 | 42.89295 | 29.76432 | 43063 ft | 459 kts | 304° |
| 2026-04-21 22:18 | 42.93167 | 29.69504 | 43065 ft | 459 kts | 304° |
| 2026-04-21 22:18 | 42.97040 | 29.62560 | 43066 ft | 459 kts | 304° |
| 2026-04-21 22:19 | 43.00907 | 29.55609 | 43066 ft | 459 kts | 304° |
| 2026-04-21 22:19 | 43.04768 | 29.48655 | 43067 ft | 459 kts | 304° |
| 2026-04-21 22:20 | 43.08603 | 29.41730 | 43068 ft | 460 kts | 304° |
| 2026-04-21 22:20 | 43.12460 | 29.34748 | 43067 ft | 460 kts | 304° |
| 2026-04-21 22:21 | 43.16314 | 29.27756 | 43069 ft | 460 kts | 304° |
| 2026-04-21 22:21 | 43.20171 | 29.20743 | 43070 ft | 460 kts | 304° |
| 2026-04-21 22:22 | 43.24021 | 29.13724 | 43072 ft | 461 kts | 304° |
| 2026-04-21 22:22 | 43.27869 | 29.06693 | 43068 ft | 461 kts | 304° |
| 2026-04-21 22:23 | 43.31714 | 28.99652 | 43073 ft | 461 kts | 304° |
| 2026-04-21 22:23 | 43.35563 | 28.92584 | 43067 ft | 461 kts | 304° |
| 2026-04-21 22:24 | 43.39384 | 28.85553 | 43071 ft | 462 kts | 304° |
| 2026-04-21 22:24 | 43.43225 | 28.78467 | 43073 ft | 462 kts | 304° |
| 2026-04-21 22:25 | 43.47066 | 28.71364 | 43074 ft | 462 kts | 304° |
| 2026-04-21 22:25 | 43.50902 | 28.64254 | 43073 ft | 462 kts | 304° |
| 2026-04-21 22:26 | 43.54733 | 28.57135 | 43071 ft | 462 kts | 304° |
| 2026-04-21 22:26 | 43.58565 | 28.49997 | 43063 ft | 463 kts | 304° |
| 2026-04-21 22:27 | 43.62368 | 28.42895 | 43061 ft | 463 kts | 304° |
| 2026-04-21 22:27 | 43.66193 | 28.35735 | 43062 ft | 463 kts | 304° |
| 2026-04-21 22:28 | 43.70016 | 28.28563 | 43063 ft | 464 kts | 304° |
| 2026-04-21 22:28 | 43.73837 | 28.21376 | 43061 ft | 464 kts | 304° |
| 2026-04-21 22:29 | 43.77657 | 28.14172 | 43062 ft | 464 kts | 304° |
| 2026-04-21 22:29 | 43.81474 | 28.06958 | 43062 ft | 464 kts | 304° |
| 2026-04-21 22:30 | 43.85291 | 27.99725 | 43064 ft | 464 kts | 304° |
| 2026-04-21 22:30 | 43.89081 | 27.92526 | 43056 ft | 464 kts | 304° |
| 2026-04-21 22:31 | 43.92890 | 27.85271 | 43060 ft | 464 kts | 304° |
| 2026-04-21 22:31 | 43.96688 | 27.78021 | 43062 ft | 464 kts | 304° |
| 2026-04-21 22:32 | 44.00482 | 27.70760 | 43062 ft | 464 kts | 304° |
| 2026-04-21 22:32 | 44.01604 | 27.68610 | 43062 ft | 464 kts | 304° |
| 2026-04-21 22:33 | 44.05392 | 27.61336 | 43057 ft | 465 kts | 304° |
| 2026-04-21 22:33 | 44.09179 | 27.54048 | 43064 ft | 465 kts | 304° |
| 2026-04-21 22:34 | 44.12959 | 27.46753 | 43067 ft | 465 kts | 304° |
| 2026-04-21 22:34 | 44.16735 | 27.39449 | 43064 ft | 464 kts | 304° |
| 2026-04-21 22:35 | 44.20505 | 27.32136 | 43067 ft | 464 kts | 304° |
| 2026-04-21 22:35 | 44.24250 | 27.24855 | 43071 ft | 464 kts | 304° |
| 2026-04-21 22:36 | 44.29891 | 27.13854 | 43070 ft | 464 kts | 303° |
| 2026-04-21 22:36 | 44.33641 | 27.06516 | 43073 ft | 464 kts | 303° |
| 2026-04-21 22:37 | 44.37387 | 26.99168 | 43071 ft | 464 kts | 303° |
| 2026-04-21 22:37 | 44.41109 | 26.91848 | 43074 ft | 464 kts | 303° |
| 2026-04-21 22:38 | 44.44845 | 26.84484 | 43071 ft | 464 kts | 303° |
| 2026-04-21 22:38 | 44.48581 | 26.77097 | 43076 ft | 464 kts | 303° |
| 2026-04-21 22:39 | 44.52308 | 26.69712 | 43076 ft | 464 kts | 303° |
| 2026-04-21 22:39 | 44.56025 | 26.62327 | 43073 ft | 464 kts | 303° |
| 2026-04-21 22:40 | 44.59722 | 26.54953 | 43075 ft | 464 kts | 303° |
| 2026-04-21 22:40 | 44.63254 | 26.47372 | 43080 ft | 463 kts | 301° |
| 2026-04-21 22:41 | 44.66687 | 26.39715 | 43077 ft | 463 kts | 301° |
| 2026-04-21 22:41 | 44.70136 | 26.32045 | 43078 ft | 463 kts | 301° |
| 2026-04-21 22:42 | 44.73594 | 26.24398 | 43075 ft | 464 kts | 301° |
| 2026-04-21 22:42 | 44.77057 | 26.16744 | 43077 ft | 464 kts | 301° |
| 2026-04-21 22:43 | 44.80520 | 26.09073 | 43077 ft | 464 kts | 301° |
| 2026-04-21 22:43 | 44.83955 | 26.01440 | 43079 ft | 464 kts | 301° |
| 2026-04-21 22:44 | 44.87406 | 25.93751 | 43057 ft | 464 kts | 301° |
| 2026-04-21 22:44 | 44.90852 | 25.86050 | 43073 ft | 464 kts | 301° |
| 2026-04-21 22:45 | 44.94296 | 25.78333 | 43068 ft | 465 kts | 301° |
| 2026-04-21 22:45 | 44.97180 | 25.71855 | 43067 ft | 465 kts | 301° |
| 2026-04-21 22:46 | 45.00598 | 25.64158 | 43069 ft | 465 kts | 301° |
| 2026-04-21 22:46 | 45.04033 | 25.56404 | 43073 ft | 465 kts | 301° |
| 2026-04-21 22:47 | 45.07469 | 25.48624 | 43055 ft | 466 kts | 301° |
| 2026-04-21 22:47 | 45.10900 | 25.40833 | 43044 ft | 466 kts | 301° |
| 2026-04-21 22:48 | 45.14326 | 25.33035 | 43049 ft | 467 kts | 301° |
| 2026-04-21 22:48 | 45.17725 | 25.25275 | 43046 ft | 467 kts | 301° |
| 2026-04-21 22:49 | 45.21151 | 25.17434 | 43044 ft | 467 kts | 301° |
| 2026-04-21 22:49 | 45.24563 | 25.09602 | 43045 ft | 467 kts | 301° |
| 2026-04-21 22:50 | 45.27975 | 25.01746 | 43049 ft | 467 kts | 301° |
| 2026-04-21 22:50 | 45.31386 | 24.93873 | 43050 ft | 467 kts | 301° |
| 2026-04-21 22:51 | 45.34781 | 24.86014 | 43053 ft | 467 kts | 301° |
| 2026-04-21 22:51 | 45.38155 | 24.78182 | 43047 ft | 467 kts | 301° |
| 2026-04-21 22:52 | 45.41538 | 24.70309 | 43054 ft | 467 kts | 300° |
| 2026-04-21 22:52 | 45.44920 | 24.62414 | 43080 ft | 466 kts | 300° |
| 2026-04-21 22:53 | 45.48292 | 24.54521 | 43053 ft | 467 kts | 300° |
| 2026-04-21 22:53 | 45.51659 | 24.46617 | 43049 ft | 467 kts | 300° |
| 2026-04-21 22:54 | 45.55031 | 24.38679 | 43060 ft | 467 kts | 300° |
| 2026-04-21 22:54 | 45.58393 | 24.30740 | 43050 ft | 467 kts | 300° |
| 2026-04-21 22:55 | 45.61728 | 24.22847 | 43049 ft | 467 kts | 300° |
| 2026-04-21 22:55 | 45.64994 | 24.14807 | 43073 ft | 467 kts | 297° |
| 2026-04-21 22:56 | 45.68027 | 24.06604 | 43051 ft | 467 kts | 297° |
| 2026-04-21 22:56 | 45.71027 | 23.98350 | 43053 ft | 467 kts | 297° |
| 2026-04-21 22:57 | 45.74011 | 23.90167 | 43046 ft | 466 kts | 297° |
| 2026-04-21 22:57 | 45.77024 | 23.81925 | 43052 ft | 466 kts | 297° |
| 2026-04-21 22:58 | 45.80030 | 23.73692 | 43055 ft | 466 kts | 297° |
| 2026-04-21 22:58 | 45.83030 | 23.65451 | 43066 ft | 466 kts | 297° |
| 2026-04-21 22:59 | 45.86023 | 23.57204 | 43070 ft | 466 kts | 296° |
| 2026-04-21 22:59 | 45.88990 | 23.48997 | 43075 ft | 466 kts | 296° |
| 2026-04-21 23:00 | 45.91970 | 23.40733 | 43074 ft | 466 kts | 296° |
| 2026-04-21 23:00 | 45.94943 | 23.32462 | 43070 ft | 465 kts | 296° |
| 2026-04-21 23:01 | 45.97911 | 23.24179 | 43071 ft | 465 kts | 296° |
| 2026-04-21 23:01 | 46.00873 | 23.15889 | 43079 ft | 465 kts | 296° |
| 2026-04-21 23:02 | 46.02827 | 23.10405 | 43084 ft | 466 kts | 296° |
| 2026-04-21 23:02 | 46.04542 | 23.05581 | 43085 ft | 466 kts | 296° |
| 2026-04-21 23:03 | 46.07493 | 22.97265 | 43083 ft | 466 kts | 296° |
| 2026-04-21 23:03 | 46.10432 | 22.88955 | 43093 ft | 466 kts | 296° |
| 2026-04-21 23:04 | 46.13376 | 22.80604 | 43089 ft | 466 kts | 296° |
| 2026-04-21 23:04 | 46.16309 | 22.72257 | 43093 ft | 467 kts | 296° |
| 2026-04-21 23:05 | 46.19237 | 22.63900 | 43092 ft | 467 kts | 296° |
| 2026-04-21 23:05 | 46.22160 | 22.55530 | 43088 ft | 467 kts | 296° |
| 2026-04-21 23:06 | 46.25082 | 22.47138 | 43093 ft | 467 kts | 296° |
| 2026-04-21 23:06 | 46.27984 | 22.38776 | 43091 ft | 468 kts | 296° |
| 2026-04-21 23:07 | 46.30899 | 22.30348 | 43091 ft | 469 kts | 296° |
| 2026-04-21 23:07 | 46.33812 | 22.21901 | 43088 ft | 469 kts | 296° |
| 2026-04-21 23:08 | 46.36719 | 22.13445 | 43089 ft | 470 kts | 295° |
| 2026-04-21 23:08 | 46.39625 | 22.04964 | 43085 ft | 470 kts | 295° |
| 2026-04-21 23:09 | 46.42528 | 21.96464 | 43087 ft | 470 kts | 295° |
| 2026-04-21 23:09 | 46.45407 | 21.88007 | 43082 ft | 471 kts | 295° |
| 2026-04-21 23:10 | 46.48305 | 21.79466 | 43085 ft | 471 kts | 295° |
| 2026-04-21 23:10 | 46.51192 | 21.70931 | 43086 ft | 472 kts | 295° |
| 2026-04-21 23:11 | 46.54079 | 21.62369 | 43093 ft | 472 kts | 295° |
| 2026-04-21 23:11 | 46.56958 | 21.53799 | 43094 ft | 472 kts | 295° |
| 2026-04-21 23:12 | 46.59836 | 21.45208 | 43096 ft | 473 kts | 295° |
| 2026-04-21 23:12 | 46.62712 | 21.36590 | 43097 ft | 473 kts | 295° |
| 2026-04-21 23:13 | 46.65579 | 21.27973 | 43098 ft | 473 kts | 295° |
| 2026-04-21 23:13 | 46.68446 | 21.19329 | 43102 ft | 474 kts | 295° |
| 2026-04-21 23:14 | 46.71288 | 21.10729 | 43104 ft | 474 kts | 295° |
| 2026-04-21 23:14 | 46.74143 | 21.02060 | 43111 ft | 474 kts | 295° |
| 2026-04-21 23:15 | 46.76996 | 20.93372 | 43112 ft | 475 kts | 295° |
| 2026-04-21 23:15 | 46.79841 | 20.84674 | 43114 ft | 475 kts | 295° |
| 2026-04-21 23:16 | 46.82680 | 20.75969 | 43117 ft | 475 kts | 295° |
| 2026-04-21 23:16 | 46.85516 | 20.67243 | 43119 ft | 475 kts | 295° |
| 2026-04-21 23:17 | 46.88347 | 20.58503 | 43121 ft | 475 kts | 295° |
| 2026-04-21 23:17 | 46.91171 | 20.49753 | 43125 ft | 476 kts | 295° |
| 2026-04-21 23:18 | 46.93986 | 20.41001 | 43130 ft | 476 kts | 295° |
| 2026-04-21 23:18 | 46.96778 | 20.32294 | 43129 ft | 476 kts | 295° |
| 2026-04-21 23:19 | 46.99589 | 20.23494 | 43133 ft | 475 kts | 295° |
| 2026-04-21 23:19 | 47.02386 | 20.14712 | 43129 ft | 475 kts | 295° |
| 2026-04-21 23:20 | 47.05178 | 20.05911 | 43133 ft | 475 kts | 295° |
| 2026-04-21 23:20 | 47.07943 | 19.97167 | 43130 ft | 475 kts | 295° |
| 2026-04-21 23:21 | 47.10718 | 19.88359 | 43133 ft | 475 kts | 295° |
| 2026-04-21 23:21 | 47.13487 | 19.79541 | 43130 ft | 475 kts | 295° |
| 2026-04-21 23:22 | 47.16244 | 19.70728 | 43135 ft | 475 kts | 295° |
| 2026-04-21 23:22 | 47.18998 | 19.61899 | 43128 ft | 472 kts | 295° |
| 2026-04-21 23:23 | 47.21684 | 19.53251 | 43140 ft | 460 kts | 295° |
| 2026-04-21 23:23 | 47.24312 | 19.44765 | 43143 ft | 456 kts | 295° |
| 2026-04-21 23:24 | 47.26928 | 19.36289 | 43149 ft | 454 kts | 295° |
| 2026-04-21 23:24 | 47.29552 | 19.27761 | 42446 ft | 462 kts | 294° |
| 2026-04-21 23:25 | 47.30868 | 19.23469 | 41912 ft | 457 kts | 294° |
| 2026-04-21 23:25 | 47.32172 | 19.19214 | 41317 ft | 454 kts | 294° |
| 2026-04-21 23:25 | 47.33468 | 19.14978 | 40765 ft | 452 kts | 294° |
| 2026-04-21 23:25 | 47.34760 | 19.10764 | 40114 ft | 451 kts | 295° |
| 2026-04-21 23:26 | 47.36083 | 19.06533 | 39363 ft | 453 kts | 295° |
| 2026-04-21 23:26 | 47.37414 | 19.02312 | 38599 ft | 455 kts | 295° |
| 2026-04-21 23:26 | 47.38753 | 18.98072 | 37727 ft | 456 kts | 295° |
| 2026-04-21 23:26 | 47.40084 | 18.93845 | 36895 ft | 454 kts | 295° |
| 2026-04-21 23:27 | 47.41410 | 18.89619 | 36078 ft | 453 kts | 295° |
| 2026-04-21 23:27 | 47.42717 | 18.85440 | 35205 ft | 453 kts | 294° |
| 2026-04-21 23:27 | 47.44039 | 18.81197 | 34271 ft | 453 kts | 294° |
| 2026-04-21 23:27 | 47.45358 | 18.76960 | 33130 ft | 454 kts | 294° |
| 2026-04-21 23:28 | 47.46668 | 18.72740 | 32355 ft | 448 kts | 294° |
| 2026-04-21 23:28 | 47.47955 | 18.68590 | 31664 ft | 440 kts | 294° |
| 2026-04-21 23:28 | 47.49218 | 18.64511 | 31008 ft | 433 kts | 294° |
| 2026-04-21 23:28 | 47.50459 | 18.60498 | 30391 ft | 426 kts | 294° |
| 2026-04-21 23:29 | 47.51682 | 18.56537 | 29691 ft | 420 kts | 294° |
| 2026-04-21 23:29 | 47.52887 | 18.52627 | 29033 ft | 413 kts | 294° |
| 2026-04-21 23:29 | 47.54028 | 18.48767 | 28414 ft | 406 kts | 291° |
| 2026-04-21 23:29 | 47.54935 | 18.44843 | 27812 ft | 400 kts | 287° |
| 2026-04-21 23:30 | 47.55759 | 18.40940 | 27215 ft | 394 kts | 287° |
| 2026-04-21 23:30 | 47.56568 | 18.37087 | 26630 ft | 390 kts | 287° |
| 2026-04-21 23:30 | 47.57372 | 18.33258 | 26047 ft | 390 kts | 287° |
| 2026-04-21 23:30 | 47.58186 | 18.29395 | 25474 ft | 398 kts | 287° |
| 2026-04-21 23:31 | 47.59020 | 18.25444 | 24877 ft | 403 kts | 287° |
| 2026-04-21 23:31 | 47.59844 | 18.21538 | 24287 ft | 400 kts | 287° |
| 2026-04-21 23:31 | 47.60670 | 18.17624 | 23693 ft | 395 kts | 287° |
| 2026-04-21 23:31 | 47.61489 | 18.13740 | 22972 ft | 397 kts | 287° |
| 2026-04-21 23:32 | 47.62307 | 18.09850 | 22784 ft | 390 kts | 287° |
| 2026-04-21 23:32 | 47.62758 | 18.07706 | 22408 ft | 387 kts | 287° |
| 2026-04-21 23:32 | 47.63557 | 18.03894 | 21615 ft | 387 kts | 287° |
| 2026-04-21 23:33 | 47.64087 | 18.01364 | 21075 ft | 388 kts | 287° |
| 2026-04-21 23:33 | 47.64889 | 17.97529 | 20334 ft | 388 kts | 287° |
| 2026-04-21 23:33 | 47.65684 | 17.93722 | 19670 ft | 386 kts | 287° |
| 2026-04-21 23:33 | 47.66474 | 17.89925 | 19052 ft | 384 kts | 287° |
| 2026-04-21 23:34 | 47.67259 | 17.86152 | 18441 ft | 381 kts | 287° |
| 2026-04-21 23:34 | 47.68039 | 17.82393 | 17776 ft | 379 kts | 287° |
| 2026-04-21 23:34 | 47.68810 | 17.78667 | 17155 ft | 376 kts | 287° |
| 2026-04-21 23:34 | 47.69564 | 17.75021 | 16571 ft | 372 kts | 287° |
| 2026-04-21 23:35 | 47.70319 | 17.71362 | 16018 ft | 369 kts | 288° |
| 2026-04-21 23:35 | 47.71067 | 17.67732 | 15454 ft | 366 kts | 288° |
| 2026-04-21 23:35 | 47.71807 | 17.64131 | 14899 ft | 363 kts | 288° |
| 2026-04-21 23:35 | 47.72534 | 17.60593 | 14355 ft | 361 kts | 288° |
| 2026-04-21 23:36 | 47.73272 | 17.56994 | 13787 ft | 358 kts | 288° |
| 2026-04-21 23:36 | 47.73987 | 17.53521 | 13237 ft | 355 kts | 289° |
| 2026-04-21 23:36 | 47.74891 | 17.50131 | 12622 ft | 352 kts | 296° |
| 2026-04-21 23:36 | 47.76030 | 17.46951 | 12357 ft | 341 kts | 302° |
| 2026-04-21 23:37 | 47.77295 | 17.44054 | 12254 ft | 326 kts | 303° |
| 2026-04-21 23:37 | 47.78522 | 17.41312 | 12152 ft | 312 kts | 304° |
| 2026-04-21 23:37 | 47.79708 | 17.38672 | 12056 ft | 299 kts | 304° |
| 2026-04-21 23:37 | 47.80836 | 17.36151 | 11968 ft | 287 kts | 304° |
| 2026-04-21 23:38 | 47.81917 | 17.33731 | 11836 ft | 276 kts | 304° |
| 2026-04-21 23:38 | 47.82963 | 17.31379 | 11640 ft | 269 kts | 304° |
| 2026-04-21 23:38 | 47.83989 | 17.29069 | 11348 ft | 266 kts | 304° |
| 2026-04-21 23:38 | 47.85004 | 17.26776 | 11008 ft | 265 kts | 304° |
| 2026-04-21 23:39 | 47.86004 | 17.24517 | 10684 ft | 264 kts | 304° |
| 2026-04-21 23:39 | 47.87012 | 17.22236 | 10356 ft | 263 kts | 304° |
| 2026-04-21 23:39 | 47.88013 | 17.19967 | 10023 ft | 262 kts | 304° |
| 2026-04-21 23:39 | 47.89009 | 17.17707 | 9682 ft | 261 kts | 304° |
| 2026-04-21 23:40 | 47.90003 | 17.15449 | 9283 ft | 260 kts | 304° |
| 2026-04-21 23:40 | 47.91006 | 17.13171 | 8848 ft | 263 kts | 304° |
| 2026-04-21 23:40 | 47.92010 | 17.10888 | 8486 ft | 263 kts | 304° |
| 2026-04-21 23:40 | 47.93011 | 17.08608 | 8183 ft | 261 kts | 304° |
| 2026-04-21 23:41 | 47.94004 | 17.06346 | 7866 ft | 260 kts | 305° |
| 2026-04-21 23:41 | 47.94993 | 17.04090 | 7565 ft | 259 kts | 305° |
| 2026-04-21 23:41 | 47.95976 | 17.01847 | 7225 ft | 259 kts | 305° |
| 2026-04-21 23:41 | 47.96963 | 16.99592 | 6882 ft | 259 kts | 304° |
| 2026-04-21 23:42 | 47.97875 | 16.97305 | 6544 ft | 260 kts | 301° |
| 2026-04-21 23:42 | 47.98713 | 16.94902 | 6173 ft | 261 kts | 298° |
| 2026-04-21 23:42 | 47.99512 | 16.92472 | 5825 ft | 262 kts | 298° |
| 2026-04-21 23:42 | 48.00295 | 16.90066 | 5743 ft | 248 kts | 298° |
| 2026-04-21 23:43 | 48.01059 | 16.87722 | 5204 ft | 254 kts | 298° |
| 2026-04-21 23:43 | 48.01837 | 16.85345 | 4790 ft | 255 kts | 298° |
| 2026-04-21 23:43 | 48.02599 | 16.83010 | 4418 ft | 243 kts | 298° |
| 2026-04-21 23:43 | 48.03318 | 16.80805 | 4079 ft | 228 kts | 299° |
| 2026-04-21 23:44 | 48.03992 | 16.78738 | 3761 ft | 214 kts | 299° |
| 2026-04-21 23:44 | 48.04622 | 16.76810 | 3519 ft | 198 kts | 300° |
| 2026-04-21 23:44 | 48.05199 | 16.75040 | 3259 ft | 180 kts | 300° |
| 2026-04-21 23:44 | 48.05721 | 16.73439 | 3013 ft | 160 kts | 301° |
| 2026-04-21 23:45 | 48.06177 | 16.72041 | 2792 ft | 141 kts | 302° |
| 2026-04-21 23:45 | 48.07031 | 16.69434 | 2425 ft | 139 kts | 302° |
| 2026-04-21 23:45 | 48.07455 | 16.68136 | 2228 ft | 138 kts | 302° |
| 2026-04-21 23:46 | 48.07871 | 16.66858 | 2036 ft | 136 kts | 302° |
| 2026-04-21 23:46 | 48.08282 | 16.65593 | 1851 ft | 135 kts | 302° |
| 2026-04-21 23:46 | 48.08675 | 16.64398 | 1684 ft | 133 kts | 301° |
| 2026-04-21 23:46 | 48.09077 | 16.63161 | 1478 ft | 132 kts | 299° |
| 2026-04-21 23:47 | 48.09483 | 16.61918 | 1292 ft | 132 kts | 298° |
| 2026-04-21 23:47 | 48.09882 | 16.60690 | 1087 ft | 129 kts | 297° |
| 2026-04-21 23:47 | 48.10276 | 16.59483 | 926 ft | 130 kts | 298° |
| 2026-04-21 23:47 | 48.10670 | 16.58322 | 782 ft | 124 kts | 297° |
| 2026-04-21 23:48 | 48.11035 | 16.57174 | 639 ft | 119 kts | 297° |
| 2026-04-21 23:48 | 48.11346 | 16.56195 | 625 ft | 86 kts | 294° |
| 2026-04-21 23:48 | 48.11546 | 16.55607 | 625 ft | 44 kts | 296° |
| 2026-04-21 23:48 | 48.11706 | 16.55266 | 625 ft | 23 kts | 319° |
| 2026-04-21 23:49 | 48.11787 | 16.55168 | 622 ft | 15 kts | 327° |
| 2026-04-21 23:49 | 48.11878 | 16.55180 | 622 ft | 14 kts | 53° |
| 2026-04-21 23:49 | 48.11858 | 16.55299 | 625 ft | 18 kts | 120° |
| 2026-04-21 23:49 | 48.11799 | 16.55468 | 620 ft | 18 kts | 116° |
| 2026-04-21 23:50 | 48.11742 | 16.55638 | 624 ft | 18 kts | 116° |
| 2026-04-21 23:50 | 48.11687 | 16.55812 | 624 ft | 18 kts | 115° |
| 2026-04-21 23:50 | 48.11632 | 16.55984 | 620 ft | 18 kts | 117° |
| 2026-04-21 23:50 | 48.11576 | 16.56155 | 625 ft | 18 kts | 116° |
| 2026-04-21 23:51 | 48.11519 | 16.56327 | 625 ft | 18 kts | 116° |
| 2026-04-21 23:51 | 48.11463 | 16.56498 | 625 ft | 18 kts | 116° |
| 2026-04-21 23:51 | 48.11407 | 16.56669 | 626 ft | 18 kts | 116° |
| 2026-04-21 23:51 | 48.11400 | 16.56825 | 626 ft | 14 kts | 46° |
| 2026-04-21 23:52 | 48.11487 | 16.56888 | 626 ft | 14 kts | 24° |
| 2026-04-21 23:52 | 48.11578 | 16.56891 | 627 ft | 14 kts | 340° |
| 2026-04-21 23:52 | 48.11664 | 16.56918 | 627 ft | 8 kts | 26° |
| 2026-04-21 23:52 | 48.11674 | 16.56925 | 628 ft | 0 kts | 26° |